Observation data for Sterling City on 10/17/2019      Previous  Date       Current Mesonet Observations  Soil Data  Daily Summary Page  Observations in Plain Language
KSC1 170500Z 26000KT 04/M04 A3014 RMK A01 T00411037  RH  057%=      5-min Rain = 0
KSC1 170501Z 00000KT 04/M04 A3014 RMK A01 T00401038  RH  057%=      5-min Rain = 0
KSC1 170502Z 01001KT 04/M04 A3014 RMK A01 T00401038  RH  057%=      5-min Rain = 0
KSC1 170503Z 35002KT 04/M04 A3014 RMK A01 T00391038  RH  057%=      5-min Rain = 0
KSC1 170504Z 34001KT 04/M04 A3015 RMK A01 T00381037  RH  058%=      5-min Rain = 0
KSC1 170505Z 34001KT 04/M04 A3015 RMK A01 T00371038  RH  058%=      5-min Rain = 0
KSC1 170506Z 34002KT 04/M04 A3015 RMK A01 T00361037  RH  059%=      5-min Rain = 0
KSC1 170507Z 34002KT 04/M04 A3015 RMK A01 T00351037  RH  059%=      5-min Rain = 0
KSC1 170508Z 34001KT 04/M04 A3015 RMK A01 T00351038  RH  059%=      5-min Rain = 0
KSC1 170509Z 34001KT 03/M04 A3015 RMK A01 T00341039  RH  059%=      5-min Rain = 0
KSC1 170510Z 33000KT 03/M04 A3015 RMK A01 T00331039  RH  059%=      5-min Rain = 0
KSC1 170511Z 31001KT 03/M04 A3015 RMK A01 T00321038  RH  060%=      5-min Rain = 0
KSC1 170512Z 31001KT 03/M04 A3015 RMK A01 T00311037  RH  061%=      5-min Rain = 0
KSC1 170513Z 31000KT 03/M04 A3015 RMK A01 T00311038  RH  061%=      5-min Rain = 0
KSC1 170514Z 31001KT 03/M04 A3014 RMK A01 T00311038  RH  061%=      5-min Rain = 0
KSC1 170515Z 31000KT 03/M04 A3014 RMK A01 T00301038  RH  061%=      5-min Rain = 0
KSC1 170516Z 15001KT 03/M04 A3014 RMK A01 T00291039  RH  061%=      5-min Rain = 0
KSC1 170517Z 00000KT 03/M04 A3014 RMK A01 T00281039  RH  061%=      5-min Rain = 0
KSC1 170518Z 15000KT 03/M04 A3014 RMK A01 T00281039  RH  062%=      5-min Rain = 0
KSC1 170519Z 17000KT 03/M04 A3014 RMK A01 T00271038  RH  062%=      5-min Rain = 0
KSC1 170520Z 00000KT 03/M04 A3014 RMK A01 T00271037  RH  063%=      5-min Rain = 0
KSC1 170521Z 00000KT 03/M04 A3014 RMK A01 T00271036  RH  063%=      5-min Rain = 0
KSC1 170522Z 00000KT 03/M04 A3014 RMK A01 T00271035  RH  063%=      5-min Rain = 0
KSC1 170523Z 00000KT 03/M04 A3014 RMK A01 T00271035  RH  064%=      5-min Rain = 0
KSC1 170524Z 00000KT 03/M04 A3014 RMK A01 T00271035  RH  064%=      5-min Rain = 0
KSC1 170525Z 00000KT 03/M04 A3014 RMK A01 T00271036  RH  063%=      5-min Rain = 0
KSC1 170526Z 00000KT 03/M04 A3014 RMK A01 T00271036  RH  063%=      5-min Rain = 0
KSC1 170527Z 17000KT 03/M03 A3014 RMK A01 T00271034  RH  064%=      5-min Rain = 0
KSC1 170528Z 00000KT 03/M03 A3014 RMK A01 T00271034  RH  064%=      5-min Rain = 0
KSC1 170529Z 00000KT 03/M03 A3014 RMK A01 T00271034  RH  064%=      5-min Rain = 0
KSC1 170530Z 00000KT 03/M03 A3014 RMK A01 T00271034  RH  064%=      5-min Rain = 0
KSC1 170531Z 00000KT 03/M03 A3014 RMK A01 T00271034  RH  064%=      5-min Rain = 0
KSC1 170532Z 17000KT 03/M04 A3014 RMK A01 T00271035  RH  064%=      5-min Rain = 0
KSC1 170533Z 16001KT 03/M04 A3014 RMK A01 T00271036  RH  063%=      5-min Rain = 0
KSC1 170534Z 16001KT 03/M04 A3014 RMK A01 T00271036  RH  063%=      5-min Rain = 0
KSC1 170535Z 16002KT 03/M04 A3014 RMK A01 T00271035  RH  064%=      5-min Rain = 0
KSC1 170536Z 15002KT 03/M04 A3014 RMK A01 T00261035  RH  064%=      5-min Rain = 0
KSC1 170537Z 14002KT 03/M03 A3014 RMK A01 T00261034  RH  065%=      5-min Rain = 0
KSC1 170538Z 13002KT 03/M03 A3014 RMK A01 T00261033  RH  065%=      5-min Rain = 0
KSC1 170539Z 12002KT 03/M03 A3014 RMK A01 T00261034  RH  064%=      5-min Rain = 0
KSC1 170540Z 12002KT 03/M04 A3014 RMK A01 T00261035  RH  064%=      5-min Rain = 0
KSC1 170541Z 12002KT 03/M04 A3014 RMK A01 T00261035  RH  064%=      5-min Rain = 0
KSC1 170542Z 12002KT 03/M04 A3013 RMK A01 T00251035  RH  065%=      5-min Rain = 0
KSC1 170543Z 12002KT 03/M03 A3013 RMK A01 T00251034  RH  065%=      5-min Rain = 0
KSC1 170544Z 12001KT 03/M03 A3013 RMK A01 T00251034  RH  065%=      5-min Rain = 0
KSC1 170545Z 11001KT 03/M04 A3013 RMK A01 T00251035  RH  065%=      5-min Rain = 0
KSC1 170546Z 10001KT 03/M03 A3013 RMK A01 T00251034  RH  065%=      5-min Rain = 0
KSC1 170547Z 09001KT 03/M03 A3013 RMK A01 T00251033  RH  066%=      5-min Rain = 0
KSC1 170548Z 08001KT 03/M03 A3014 RMK A01 T00251034  RH  065%=      5-min Rain = 0
KSC1 170549Z 07001KT 02/M04 A3014 RMK A01 T00241036  RH  064%=      5-min Rain = 0
KSC1 170550Z 06001KT 03/M04 A3013 RMK A01 T00251037  RH  064%=      5-min Rain = 0
KSC1 170551Z 06001KT 02/M04 A3014 RMK A01 T00241038  RH  064%=      5-min Rain = 0
KSC1 170552Z 05001KT 02/M04 A3013 RMK A01 T00241038  RH  064%=      5-min Rain = 0
KSC1 170553Z 04001KT 02/M04 A3013 RMK A01 T00241037  RH  064%=      5-min Rain = 0
KSC1 170554Z 03001KT 02/M04 A3013 RMK A01 T00241037  RH  064%=      5-min Rain = 0
KSC1 170555Z 03001KT 02/M04 A3013 RMK A01 T00241038  RH  064%=      5-min Rain = 0
KSC1 170556Z 03000KT 02/M04 A3013 RMK A01 T00241039  RH  063%=      5-min Rain = 0
KSC1 170557Z 00000KT 02/M04 A3013 RMK A01 T00241038  RH  064%=      5-min Rain = 0
KSC1 170558Z 34000KT 02/M04 A3013 RMK A01 T00241037  RH  064%=      5-min Rain = 0
KSC1 170559Z 33002KT 02/M04 A3013 RMK A01 T00241037  RH  064%=      5-min Rain = 0
KSC1 170600Z 33002KT 02/M04 A3013 RMK A01 T00241038  RH  064%=      5-min Rain = 0
KSC1 170601Z 32003KT 02/M04 A3013 RMK A01 T00241038  RH  063%=      5-min Rain = 0
KSC1 170602Z 31003KT 03/M04 A3014 RMK A01 T00251039  RH  063%=      5-min Rain = 0
KSC1 170603Z 30002KT 03/M04 A3014 RMK A01 T00251040  RH  062%=      5-min Rain = 0
KSC1 170604Z 30002KT 03/M04 A3014 RMK A01 T00251039  RH  063%=      5-min Rain = 0
KSC1 170605Z 29002KT 03/M04 A3014 RMK A01 T00251039  RH  063%=      5-min Rain = 0
KSC1 170606Z 27002KT 03/M04 A3014 RMK A01 T00251038  RH  063%=      5-min Rain = 0
KSC1 170607Z 28002KT 02/M04 A3014 RMK A01 T00241039  RH  063%=      5-min Rain = 0
KSC1 170608Z 27002KT 02/M04 A3014 RMK A01 T00241038  RH  063%=      5-min Rain = 0
KSC1 170609Z 27001KT 02/M04 A3014 RMK A01 T00241038  RH  064%=      5-min Rain = 0
KSC1 170610Z 26001KT 02/M04 A3014 RMK A01 T00241037  RH  064%=      5-min Rain = 0
KSC1 170611Z 23002KT 02/M04 A3014 RMK A01 T00231038  RH  064%=      5-min Rain = 0
KSC1 170612Z 22002KT 02/M04 A3014 RMK A01 T00231037  RH  064%=      5-min Rain = 0
KSC1 170613Z 22002KT 02/M04 A3014 RMK A01 T00221036  RH  065%=      5-min Rain = 0
KSC1 170614Z 22002KT 02/M04 A3014 RMK A01 T00221036  RH  066%=      5-min Rain = 0
KSC1 170615Z 22002KT 02/M04 A3014 RMK A01 T00211036  RH  066%=      5-min Rain = 0
KSC1 170616Z 21002KT 02/M04 A3014 RMK A01 T00211035  RH  066%=      5-min Rain = 0
KSC1 170617Z 21002KT 02/M04 A3013 RMK A01 T00211036  RH  066%=      5-min Rain = 0
KSC1 170618Z 20002KT 02/M04 A3013 RMK A01 T00211035  RH  067%=      5-min Rain = 0
KSC1 170619Z 19002KT 02/M04 A3013 RMK A01 T00211035  RH  067%=      5-min Rain = 0
KSC1 170620Z 19002KT 02/M04 A3013 RMK A01 T00211037  RH  066%=      5-min Rain = 0
KSC1 170621Z 19003KT 02/M04 A3013 RMK A01 T00201038  RH  065%=      5-min Rain = 0
KSC1 170622Z 19002KT 02/M04 A3013 RMK A01 T00191039  RH  066%=      5-min Rain = 0
KSC1 170623Z 18002KT 02/M04 A3013 RMK A01 T00171039  RH  066%=      5-min Rain = 0
KSC1 170624Z 18003KT 02/M04 A3013 RMK A01 T00171039  RH  067%=      5-min Rain = 0
KSC1 170625Z 18003KT 02/M04 A3013 RMK A01 T00161038  RH  067%=      5-min Rain = 0
KSC1 170626Z 17002KT 02/M04 A3013 RMK A01 T00161037  RH  068%=      5-min Rain = 0
KSC1 170627Z 17003KT 02/M04 A3013 RMK A01 T00161037  RH  068%=      5-min Rain = 0
KSC1 170628Z 17002KT 02/M04 A3013 RMK A01 T00161037  RH  068%=      5-min Rain = 0
KSC1 170629Z 17002KT 02/M04 A3013 RMK A01 T00161037  RH  068%=      5-min Rain = 0
KSC1 170630Z 17002KT 02/M04 A3013 RMK A01 T00171035  RH  068%=      5-min Rain = 0
KSC1 170631Z 17001KT 02/M04 A3013 RMK A01 T00181035  RH  068%=      5-min Rain = 0
KSC1 170632Z 17001KT 02/M04 A3013 RMK A01 T00191036  RH  067%=      5-min Rain = 0
KSC1 170633Z 21001KT 02/M04 A3013 RMK A01 T00191037  RH  066%=      5-min Rain = 0
KSC1 170634Z 23002KT 02/M04 A3013 RMK A01 T00191038  RH  066%=      5-min Rain = 0
KSC1 170635Z 23002KT 02/M04 A3013 RMK A01 T00191038  RH  066%=      5-min Rain = 0
KSC1 170636Z 30002KT 02/M04 A3013 RMK A01 T00191038  RH  066%=      5-min Rain = 0
KSC1 170637Z 32002KT 02/M04 A3013 RMK A01 T00191038  RH  066%=      5-min Rain = 0
KSC1 170638Z 32002KT 02/M04 A3013 RMK A01 T00191038  RH  066%=      5-min Rain = 0
KSC1 170639Z 32002KT 02/M04 A3013 RMK A01 T00201038  RH  066%=      5-min Rain = 0
KSC1 170640Z 30002KT 02/M04 A3013 RMK A01 T00201038  RH  065%=      5-min Rain = 0
KSC1 170641Z 29002KT 02/M04 A3013 RMK A01 T00201039  RH  065%=      5-min Rain = 0
KSC1 170642Z 28002KT 02/M04 A3013 RMK A01 T00211039  RH  065%=      5-min Rain = 0
KSC1 170643Z 28002KT 02/M04 A3013 RMK A01 T00211039  RH  065%=      5-min Rain = 0
KSC1 170644Z 28002KT 02/M04 A3013 RMK A01 T00211038  RH  065%=      5-min Rain = 0
KSC1 170645Z 28002KT 02/M04 A3013 RMK A01 T00211039  RH  065%=      5-min Rain = 0
KSC1 170646Z 29003KT 02/M04 A3013 RMK A01 T00201041  RH  064%=      5-min Rain = 0
KSC1 170647Z 31003KT 02/M04 A3013 RMK A01 T00191041  RH  064%=      5-min Rain = 0
KSC1 170648Z 31003KT 02/M04 A3013 RMK A01 T00191041  RH  064%=      5-min Rain = 0
KSC1 170649Z 31002KT 02/M04 A3013 RMK A01 T00181041  RH  065%=      5-min Rain = 0
KSC1 170650Z 30002KT 02/M04 A3013 RMK A01 T00181041  RH  065%=      5-min Rain = 0
KSC1 170651Z 30002KT 02/M04 A3013 RMK A01 T00171042  RH  065%=      5-min Rain = 0
KSC1 170652Z 30002KT 02/M04 A3013 RMK A01 T00171042  RH  065%=      5-min Rain = 0
KSC1 170653Z 30003KT 02/M04 A3013 RMK A01 T00171041  RH  065%=      5-min Rain = 0
KSC1 170654Z 30002KT 02/M04 A3013 RMK A01 T00161041  RH  066%=      5-min Rain = 0
KSC1 170655Z 30002KT 02/M04 A3013 RMK A01 T00161043  RH  065%=      5-min Rain = 0
KSC1 170656Z 30002KT 02/M04 A3013 RMK A01 T00151042  RH  065%=      5-min Rain = 0
KSC1 170657Z 30002KT 02/M04 A3013 RMK A01 T00151041  RH  066%=      5-min Rain = 0
KSC1 170658Z 30002KT 01/M04 A3013 RMK A01 T00141042  RH  066%=      5-min Rain = 0
KSC1 170659Z 29002KT 01/M04 A3012 RMK A01 T00131043  RH  066%=      5-min Rain = 0
KSC1 170700Z 29002KT 01/M04 A3012 RMK A01 T00131044  RH  066%=      5-min Rain = 0
KSC1 170701Z 28001KT 01/M04 A3012 RMK A01 T00121044  RH  066%=      5-min Rain = 0
KSC1 170702Z 28001KT 01/M04 A3012 RMK A01 T00121043  RH  067%=      5-min Rain = 0
KSC1 170703Z 28001KT 01/M04 A3012 RMK A01 T00111044  RH  067%=      5-min Rain = 0
KSC1 170704Z 29002KT 01/M04 A3012 RMK A01 T00111044  RH  067%=      5-min Rain = 0
KSC1 170705Z 27002KT 01/M04 A3013 RMK A01 T00101044  RH  067%=      5-min Rain = 0
KSC1 170706Z 29002KT 01/M04 A3013 RMK A01 T00091043  RH  068%=      5-min Rain = 0
KSC1 170707Z 28002KT 01/M04 A3013 RMK A01 T00101040  RH  069%=      5-min Rain = 0
KSC1 170708Z 28002KT 01/M04 A3013 RMK A01 T00101041  RH  069%=      5-min Rain = 0
KSC1 170709Z 29002KT 01/M04 A3013 RMK A01 T00101041  RH  069%=      5-min Rain = 0
KSC1 170710Z 30003KT 01/M04 A3013 RMK A01 T00101041  RH  069%=      5-min Rain = 0
KSC1 170711Z 30002KT 01/M04 A3013 RMK A01 T00091043  RH  068%=      5-min Rain = 0
KSC1 170712Z 29002KT 01/M04 A3013 RMK A01 T00091044  RH  068%=      5-min Rain = 0
KSC1 170713Z 30002KT 01/M04 A3013 RMK A01 T00091044  RH  068%=      5-min Rain = 0
KSC1 170714Z 30002KT 01/M04 A3013 RMK A01 T00091044  RH  068%=      5-min Rain = 0
KSC1 170715Z 30002KT 01/M04 A3013 RMK A01 T00081044  RH  068%=      5-min Rain = 0
KSC1 170716Z 29002KT 01/M04 A3013 RMK A01 T00081044  RH  068%=      5-min Rain = 0
KSC1 170717Z 29002KT 01/M04 A3013 RMK A01 T00071044  RH  069%=      5-min Rain = 0
KSC1 170718Z 28003KT 01/M04 A3013 RMK A01 T00071043  RH  069%=      5-min Rain = 0
KSC1 170719Z 28003KT 01/M04 A3013 RMK A01 T00071042  RH  070%=      5-min Rain = 0
KSC1 170720Z 28003KT 01/M04 A3013 RMK A01 T00061043  RH  069%=      5-min Rain = 0
KSC1 170721Z 28003KT 01/M05 A3013 RMK A01 T00061045  RH  069%=      5-min Rain = 0
KSC1 170722Z 28003KT 01/M05 A3013 RMK A01 T00051045  RH  069%=      5-min Rain = 0
KSC1 170723Z 28003KT 01/M04 A3013 RMK A01 T00051044  RH  069%=      5-min Rain = 0
KSC1 170724Z 29003KT 01/M05 A3013 RMK A01 T00051045  RH  070%=      5-min Rain = 0
KSC1 170725Z 28003KT 00/M05 A3013 RMK A01 T00041045  RH  070%=      5-min Rain = 0
KSC1 170726Z 28003KT 00/M05 A3013 RMK A01 T00041045  RH  070%=      5-min Rain = 0
KSC1 170727Z 28003KT 00/M05 A3013 RMK A01 T00041045  RH  070%=      5-min Rain = 0
KSC1 170728Z 28002KT 00/M05 A3013 RMK A01 T00031045  RH  070%=      5-min Rain = 0
KSC1 170729Z 29003KT 00/M05 A3013 RMK A01 T00031045  RH  070%=      5-min Rain = 0
KSC1 170730Z 27002KT 00/M05 A3013 RMK A01 T00031045  RH  070%=      5-min Rain = 0
KSC1 170731Z 27002KT 00/M05 A3013 RMK A01 T00031045  RH  071%=      5-min Rain = 0
KSC1 170732Z 27002KT 00/M04 A3013 RMK A01 T00031044  RH  071%=      5-min Rain = 0
KSC1 170733Z 27002KT 00/M04 A3013 RMK A01 T00021044  RH  071%=      5-min Rain = 0
KSC1 170734Z 27002KT 00/M04 A3013 RMK A01 T00021043  RH  072%=      5-min Rain = 0
KSC1 170735Z 27002KT 00/M04 A3013 RMK A01 T00021043  RH  072%=      5-min Rain = 0
KSC1 170736Z 26002KT 00/M04 A3013 RMK A01 T00021043  RH  071%=      5-min Rain = 0
KSC1 170737Z 26002KT 00/M04 A3013 RMK A01 T00021043  RH  072%=      5-min Rain = 0
KSC1 170738Z 26002KT 00/M04 A3013 RMK A01 T00021042  RH  072%=      5-min Rain = 0
KSC1 170739Z 27002KT 00/M04 A3013 RMK A01 T00021042  RH  072%=      5-min Rain = 0
KSC1 170740Z 27002KT 00/M04 A3013 RMK A01 T00021042  RH  072%=      5-min Rain = 0
KSC1 170741Z 27002KT 00/M04 A3013 RMK A01 T00021042  RH  072%=      5-min Rain = 0
KSC1 170742Z 28002KT 00/M04 A3013 RMK A01 T00021042  RH  072%=      5-min Rain = 0
KSC1 170743Z 28002KT 00/M04 A3013 RMK A01 T00021042  RH  072%=      5-min Rain = 0
KSC1 170744Z 28001KT 00/M04 A3013 RMK A01 T00021042  RH  072%=      5-min Rain = 0
KSC1 170745Z 27001KT 00/M04 A3013 RMK A01 T00011043  RH  072%=      5-min Rain = 0
KSC1 170746Z 26002KT 00/M04 A3013 RMK A01 T00011044  RH  072%=      5-min Rain = 0
KSC1 170747Z 26002KT 00/M04 A3013 RMK A01 T00011043  RH  073%=      5-min Rain = 0
KSC1 170748Z 26002KT 00/M04 A3013 RMK A01 T00011041  RH  073%=      5-min Rain = 0
KSC1 170749Z 28002KT 00/M04 A3013 RMK A01 T00011040  RH  074%=      5-min Rain = 0
KSC1 170750Z 28003KT 00/M04 A3013 RMK A01 T00011041  RH  073%=      5-min Rain = 0
KSC1 170751Z 29003KT 00/M04 A3013 RMK A01 T00021043  RH  072%=      5-min Rain = 0
KSC1 170752Z 29003KT 00/M04 A3013 RMK A01 T00021043  RH  072%=      5-min Rain = 0
KSC1 170753Z 29003KT 00/M04 A3013 RMK A01 T00021043  RH  071%=      5-min Rain = 0
KSC1 170754Z 29003KT 00/M04 A3013 RMK A01 T00031043  RH  071%=      5-min Rain = 0
KSC1 170755Z 30003KT 00/M04 A3013 RMK A01 T00031043  RH  071%=      5-min Rain = 0
KSC1 170756Z 31004KT 00/M04 A3013 RMK A01 T00041042  RH  071%=      5-min Rain = 0
KSC1 170757Z 32004KT 00/M04 A3013 RMK A01 T00031043  RH  071%=      5-min Rain = 0
KSC1 170758Z 32003KT 00/M04 A3013 RMK A01 T00041043  RH  071%=      5-min Rain = 0
KSC1 170759Z 32003KT 00/M04 A3013 RMK A01 T00041044  RH  070%=      5-min Rain = 0
KSC1 170800Z 32004KT 00/M04 A3013 RMK A01 T00031044  RH  070%=      5-min Rain = 0
KSC1 170801Z 33003KT 00/M04 A3012 RMK A01 T00031044  RH  070%=      5-min Rain = 0
KSC1 170802Z 32002KT 00/M04 A3012 RMK A01 T00041044  RH  070%=      5-min Rain = 0
KSC1 170803Z 31002KT 00/M05 A3012 RMK A01 T00031046  RH  070%=      5-min Rain = 0
KSC1 170804Z 32002KT 00/M05 A3012 RMK A01 T00021047  RH  070%=      5-min Rain = 0
KSC1 170805Z 31002KT 00/M05 A3012 RMK A01 T00011046  RH  070%=      5-min Rain = 0
KSC1 170806Z 30002KT 00/M05 A3012 RMK A01 T00011046  RH  071%=      5-min Rain = 0
KSC1 170807Z 29002KT 00/05 A3012 RMK A01 T00000-45  RH  072%=      5-min Rain = 0
KSC1 170808Z 29001KT 00/04 A3012 RMK A01 T00000-43  RH  073%=      5-min Rain = 0
KSC1 170809Z 29001KT 00/04 A3012 RMK A01 T00-00-43  RH  073%=      5-min Rain = 0
KSC1 170810Z 26001KT 00/04 A3012 RMK A01 T00-00-43  RH  073%=      5-min Rain = 0
KSC1 170811Z 24001KT M00/M04 A3012 RMK A01 T10011043  RH  073%=      5-min Rain = 0
KSC1 170812Z 24001KT 00/04 A3012 RMK A01 T00-00-41  RH  074%=      5-min Rain = 0
KSC1 170813Z 23001KT 00/04 A3012 RMK A01 T00-00-41  RH  074%=      5-min Rain = 0
KSC1 170814Z 23002KT 00/04 A3012 RMK A01 T00000-40  RH  074%=      5-min Rain = 0
KSC1 170815Z 22002KT 00/04 A3012 RMK A01 T00000-40  RH  074%=      5-min Rain = 0
KSC1 170816Z 21002KT 00/04 A3012 RMK A01 T00000-40  RH  074%=      5-min Rain = 0
KSC1 170817Z 21002KT 00/04 A3012 RMK A01 T00-00-41  RH  074%=      5-min Rain = 0
KSC1 170818Z 22002KT 00/04 A3012 RMK A01 T00-00-41  RH  074%=      5-min Rain = 0
KSC1 170819Z 21003KT M00/M04 A3012 RMK A01 T10011041  RH  074%=      5-min Rain = 0
KSC1 170820Z 22003KT 00/04 A3012 RMK A01 T00-00-40  RH  074%=      5-min Rain = 0
KSC1 170821Z 23003KT 00/M04 A3012 RMK A01 T00011036  RH  076%=      5-min Rain = 0
KSC1 170822Z 23003KT 00/M04 A3012 RMK A01 T00031035  RH  075%=      5-min Rain = 0
KSC1 170823Z 22003KT 00/M04 A3012 RMK A01 T00041037  RH  074%=      5-min Rain = 0
KSC1 170824Z 22003KT 00/M04 A3012 RMK A01 T00041039  RH  073%=      5-min Rain = 0
KSC1 170825Z 22003KT 01/M04 A3012 RMK A01 T00051038  RH  073%=      5-min Rain = 0
KSC1 170826Z 23003KT 01/M04 A3012 RMK A01 T00061037  RH  073%=      5-min Rain = 0
KSC1 170827Z 24003KT 01/M04 A3012 RMK A01 T00061037  RH  073%=      5-min Rain = 0
KSC1 170828Z 25003KT 01/M04 A3012 RMK A01 T00061038  RH  072%=      5-min Rain = 0
KSC1 170829Z 25002KT 01/M04 A3012 RMK A01 T00061039  RH  072%=      5-min Rain = 0
KSC1 170830Z 23002KT 01/M04 A3012 RMK A01 T00061039  RH  071%=      5-min Rain = 0
KSC1 170831Z 22003KT 01/M04 A3012 RMK A01 T00061039  RH  072%=      5-min Rain = 0
KSC1 170832Z 22003KT 01/M04 A3012 RMK A01 T00061039  RH  071%=      5-min Rain = 0
KSC1 170833Z 21003KT 01/M04 A3012 RMK A01 T00061041  RH  071%=      5-min Rain = 0
KSC1 170834Z 21003KT 01/M04 A3012 RMK A01 T00051043  RH  070%=      5-min Rain = 0
KSC1 170835Z 20003KT 00/M04 A3012 RMK A01 T00041043  RH  070%=      5-min Rain = 0
KSC1 170836Z 20003KT 00/M04 A3012 RMK A01 T00031042  RH  071%=      5-min Rain = 0
KSC1 170837Z 19003KT 00/M04 A3012 RMK A01 T00031043  RH  071%=      5-min Rain = 0
KSC1 170838Z 19003KT 00/M04 A3012 RMK A01 T00021043  RH  071%=      5-min Rain = 0
KSC1 170839Z 19003KT 00/M04 A3012 RMK A01 T00021044  RH  071%=      5-min Rain = 0
KSC1 170840Z 19003KT 00/M04 A3012 RMK A01 T00011044  RH  072%=      5-min Rain = 0
KSC1 170841Z 18003KT 00/M04 A3012 RMK A01 T00011043  RH  072%=      5-min Rain = 0
KSC1 170842Z 18003KT 00/M04 A3012 RMK A01 T00011043  RH  072%=      5-min Rain = 0
KSC1 170843Z 18002KT 00/M04 A3012 RMK A01 T00011043  RH  073%=      5-min Rain = 0
KSC1 170844Z 18002KT 00/04 A3012 RMK A01 T00000-43  RH  073%=      5-min Rain = 0
KSC1 170845Z 18002KT 00/04 A3012 RMK A01 T00-00-43  RH  073%=      5-min Rain = 0
KSC1 170846Z 18002KT M00/M04 A3012 RMK A01 T10011044  RH  073%=      5-min Rain = 0
KSC1 170847Z 17002KT 00/04 A3012 RMK A01 T00-00-44  RH  073%=      5-min Rain = 0
KSC1 170848Z 16002KT M00/M04 A3012 RMK A01 T10011044  RH  073%=      5-min Rain = 0
KSC1 170849Z 16002KT M00/M04 A3012 RMK A01 T10011043  RH  073%=      5-min Rain = 0
KSC1 170850Z 16003KT M00/M04 A3012 RMK A01 T10011043  RH  074%=      5-min Rain = 0
KSC1 170851Z 15003KT M00/M04 A3012 RMK A01 T10011041  RH  074%=      5-min Rain = 0
KSC1 170852Z 15003KT M00/M04 A3012 RMK A01 T10011041  RH  074%=      5-min Rain = 0
KSC1 170853Z 15002KT M00/M04 A3012 RMK A01 T10011042  RH  074%=      5-min Rain = 0
KSC1 170854Z 15003KT M00/M04 A3012 RMK A01 T10011042  RH  074%=      5-min Rain = 0
KSC1 170855Z 15003KT M00/M04 A3012 RMK A01 T10011041  RH  074%=      5-min Rain = 0
KSC1 170856Z 14003KT M00/M04 A3012 RMK A01 T10011042  RH  074%=      5-min Rain = 0
KSC1 170857Z 14003KT M00/M04 A3012 RMK A01 T10011042  RH  074%=      5-min Rain = 0
KSC1 170858Z 14003KT M00/M04 A3012 RMK A01 T10011043  RH  073%=      5-min Rain = 0
KSC1 170859Z 14003KT M00/M04 A3012 RMK A01 T10011043  RH  074%=      5-min Rain = 0
KSC1 170900Z 14003KT M00/M04 A3012 RMK A01 T10021043  RH  074%=      5-min Rain = 0
KSC1 170901Z 13003KT M00/M04 A3012 RMK A01 T10011042  RH  074%=      5-min Rain = 0
KSC1 170902Z 13002KT 00/04 A3012 RMK A01 T00-00-43  RH  073%=      5-min Rain = 0
KSC1 170903Z 13001KT 00/04 A3012 RMK A01 T00-00-43  RH  073%=      5-min Rain = 0
KSC1 170904Z 00000KT 00/04 A3012 RMK A01 T00000-43  RH  073%=      5-min Rain = 0
KSC1 170905Z 25000KT 00/04 A3012 RMK A01 T00000-44  RH  072%=      5-min Rain = 0
KSC1 170906Z 31001KT 00/M04 A3012 RMK A01 T00011043  RH  072%=      5-min Rain = 0
KSC1 170907Z 31001KT 00/M04 A3012 RMK A01 T00011043  RH  072%=      5-min Rain = 0
KSC1 170908Z 32001KT 00/M04 A3012 RMK A01 T00011043  RH  072%=      5-min Rain = 0
KSC1 170909Z 32002KT 00/M04 A3011 RMK A01 T00011043  RH  072%=      5-min Rain = 0
KSC1 170910Z 32003KT 00/M04 A3011 RMK A01 T00021043  RH  072%=      5-min Rain = 0
KSC1 170911Z 32003KT 00/M04 A3011 RMK A01 T00021044  RH  072%=      5-min Rain = 0
KSC1 170912Z 32003KT 00/M04 A3011 RMK A01 T00021043  RH  071%=      5-min Rain = 0
KSC1 170913Z 32003KT 00/M04 A3011 RMK A01 T00021044  RH  071%=      5-min Rain = 0
KSC1 170914Z 32002KT 00/M04 A3011 RMK A01 T00031043  RH  071%=      5-min Rain = 0
KSC1 170915Z 32002KT 00/M04 A3011 RMK A01 T00031043  RH  071%=      5-min Rain = 0
KSC1 170916Z 33002KT 00/M05 A3011 RMK A01 T00021045  RH  071%=      5-min Rain = 0
KSC1 170917Z 33002KT 00/M05 A3011 RMK A01 T00011046  RH  071%=      5-min Rain = 0
KSC1 170918Z 33001KT 00/05 A3011 RMK A01 T00-00-46  RH  071%=      5-min Rain = 0
KSC1 170919Z 33001KT M00/M05 A3011 RMK A01 T10011045  RH  072%=      5-min Rain = 0
KSC1 170920Z 33001KT M00/M04 A3011 RMK A01 T10011044  RH  073%=      5-min Rain = 0
KSC1 170921Z 33000KT M00/M04 A3011 RMK A01 T10011044  RH  072%=      5-min Rain = 0
KSC1 170922Z 00000KT M00/M04 A3011 RMK A01 T10011044  RH  072%=      5-min Rain = 0
KSC1 170923Z 00000KT M00/M04 A3011 RMK A01 T10011043  RH  073%=      5-min Rain = 0
KSC1 170924Z 00000KT M00/M04 A3011 RMK A01 T10021043  RH  073%=      5-min Rain = 0
KSC1 170925Z 00000KT M00/M04 A3011 RMK A01 T10021043  RH  074%=      5-min Rain = 0
KSC1 170926Z 00000KT M00/M04 A301 RMK A01 T10021043  RH  074%=      5-min Rain = 0
KSC1 170927Z 00000KT M00/M04 A301 RMK A01 T10021042  RH  074%=      5-min Rain = 0
KSC1 170928Z 00000KT M00/M04 A301 RMK A01 T10021042  RH  075%=      5-min Rain = 0
KSC1 170929Z 00000KT M00/M04 A301 RMK A01 T10031042  RH  075%=      5-min Rain = 0
KSC1 170930Z 00000KT M00/M04 A301 RMK A01 T10031042  RH  075%=      5-min Rain = 0
KSC1 170931Z 00000KT M00/M04 A301 RMK A01 T10031041  RH  075%=      5-min Rain = 0
KSC1 170932Z 00000KT M00/M04 A301 RMK A01 T10031041  RH  075%=      5-min Rain = 0
KSC1 170933Z 00000KT M00/M04 A301 RMK A01 T10031041  RH  076%=      5-min Rain = 0
KSC1 170934Z 03000KT M00/M04 A301 RMK A01 T10031041  RH  075%=      5-min Rain = 0
KSC1 170935Z 03001KT M00/M04 A301 RMK A01 T10031042  RH  075%=      5-min Rain = 0
KSC1 170936Z 06001KT M00/M04 A301 RMK A01 T10031042  RH  075%=      5-min Rain = 0
KSC1 170937Z 17001KT M00/M04 A301 RMK A01 T10041043  RH  075%=      5-min Rain = 0
KSC1 170938Z 17001KT M01/M04 A301 RMK A01 T10051044  RH  075%=      5-min Rain = 0
KSC1 170939Z 17001KT M01/M04 A301 RMK A01 T10051044  RH  075%=      5-min Rain = 0
KSC1 170940Z 17001KT M01/M04 A301 RMK A01 T10051044  RH  075%=      5-min Rain = 0
KSC1 170941Z 16001KT M01/M04 A301 RMK A01 T10061044  RH  075%=      5-min Rain = 0
KSC1 170942Z 16002KT M01/M04 A301 RMK A01 T10061043  RH  076%=      5-min Rain = 0
KSC1 170943Z 15002KT M01/M04 A301 RMK A01 T10051041  RH  077%=      5-min Rain = 0
KSC1 170944Z 15003KT M01/M04 A301 RMK A01 T10051041  RH  077%=      5-min Rain = 0
KSC1 170945Z 15003KT M00/M04 A301 RMK A01 T10041039  RH  077%=      5-min Rain = 0
KSC1 170946Z 15004KT M00/M04 A3009 RMK A01 T10041038  RH  077%=      5-min Rain = 0
KSC1 170947Z 17005KT M00/M04 A3009 RMK A01 T10031038  RH  077%=      5-min Rain = 0
KSC1 170948Z 17005KT M00/M04 A3009 RMK A01 T10021036  RH  078%=      5-min Rain = 0
KSC1 170949Z 17005KT 00/03 A3009 RMK A01 T00000-34  RH  078%=      5-min Rain = 0
KSC1 170950Z 17006KT 00/M03 A3009 RMK A01 T00031031  RH  078%=      5-min Rain = 0
KSC1 170951Z 17006KT 01/M03 A3009 RMK A01 T00081026  RH  078%=      5-min Rain = 0
KSC1 170952Z 17006KT 01/M02 A3009 RMK A01 T00121024  RH  077%=      5-min Rain = 0
KSC1 170953Z 17006KT 02/M02 A3009 RMK A01 T00151023  RH  075%=      5-min Rain = 0
KSC1 170954Z 16006KT 02/M03 A3009 RMK A01 T00171025  RH  074%=      5-min Rain = 0
KSC1 170955Z 16006KT 02/M03 A3009 RMK A01 T00181026  RH  073%=      5-min Rain = 0
KSC1 170956Z 16006KT 02/M03 A3008 RMK A01 T00191027  RH  072%=      5-min Rain = 0
KSC1 170957Z 16005KT 02/M03 A3008 RMK A01 T00191028  RH  071%=      5-min Rain = 0
KSC1 170958Z 16005KT 02/M03 A3008 RMK A01 T00191028  RH  071%=      5-min Rain = 0
KSC1 170959Z 16005KT 02/M03 A3008 RMK A01 T00181029  RH  071%=      5-min Rain = 0
KSC1 171000Z 16005KT 02/M03 A3008 RMK A01 T00181029  RH  071%=      5-min Rain = 0
KSC1 171001Z 16005KT 02/M03 A3008 RMK A01 T00181029  RH  071%=      5-min Rain = 0
KSC1 171002Z 16005KT 02/M03 A3008 RMK A01 T00181028  RH  071%=      5-min Rain = 0
KSC1 171003Z 16004KT 02/M03 A3008 RMK A01 T00191027  RH  071%=      5-min Rain = 0
KSC1 171004Z 16004KT 02/M03 A3008 RMK A01 T00201027  RH  071%=      5-min Rain = 0
KSC1 171005Z 16003KT 02/M03 A3008 RMK A01 T00201028  RH  071%=      5-min Rain = 0
KSC1 171006Z 16003KT 02/M03 A3008 RMK A01 T00211027  RH  071%=      5-min Rain = 0
KSC1 171007Z 16002KT 02/M03 A3008 RMK A01 T00211028  RH  070%=      5-min Rain = 0
KSC1 171008Z 17000KT 02/M03 A3009 RMK A01 T00211027  RH  071%=      5-min Rain = 0
KSC1 171009Z 34002KT 02/M03 A3009 RMK A01 T00231026  RH  070%=      5-min Rain = 0
KSC1 171010Z 33004KT 02/M03 A3009 RMK A01 T00231029  RH  069%=      5-min Rain = 0
KSC1 171011Z 33003KT 02/M03 A3009 RMK A01 T00221032  RH  068%=      5-min Rain = 0
KSC1 171012Z 33004KT 02/M03 A3009 RMK A01 T00211033  RH  067%=      5-min Rain = 0
KSC1 171013Z 34004KT 02/M03 A3008 RMK A01 T00191034  RH  068%=      5-min Rain = 0
KSC1 171014Z 35004KT 02/M03 A3008 RMK A01 T00181034  RH  068%=      5-min Rain = 0
KSC1 171015Z 35004KT 02/M04 A3008 RMK A01 T00181035  RH  068%=      5-min Rain = 0
KSC1 171016Z 34004KT 02/M04 A3008 RMK A01 T00171035  RH  068%=      5-min Rain = 0
KSC1 171017Z 35004KT 02/M04 A3008 RMK A01 T00161035  RH  069%=      5-min Rain = 0
KSC1 171018Z 35004KT 02/M04 A3008 RMK A01 T00151035  RH  069%=      5-min Rain = 0
KSC1 171019Z 34004KT 01/M04 A3008 RMK A01 T00141036  RH  069%=      5-min Rain = 0
KSC1 171020Z 34005KT 01/M04 A3008 RMK A01 T00141035  RH  070%=      5-min Rain = 0
KSC1 171021Z 34005KT 01/M04 A3008 RMK A01 T00131035  RH  070%=      5-min Rain = 0
KSC1 171022Z 35003KT 01/M04 A3009 RMK A01 T00131035  RH  070%=      5-min Rain = 0
KSC1 171023Z 36004KT 01/M04 A3009 RMK A01 T00131035  RH  070%=      5-min Rain = 0
KSC1 171024Z 00005KT 01/M04 A3009 RMK A01 T00131035  RH  071%=      5-min Rain = 0
KSC1 171025Z 00006KT 01/M03 A3009 RMK A01 T00131034  RH  071%=      5-min Rain = 0
KSC1 171026Z 35005KT 02/M03 A3009 RMK A01 T00151032  RH  071%=      5-min Rain = 0
KSC1 171027Z 36006KT 02/M03 A3009 RMK A01 T00161033  RH  070%=      5-min Rain = 0
KSC1 171028Z 01004KT 02/M03 A3009 RMK A01 T00171033  RH  069%=      5-min Rain = 0
KSC1 171029Z 33005KT 02/M03 A3009 RMK A01 T00171034  RH  069%=      5-min Rain = 0
KSC1 171030Z 33005KT 02/M03 A3009 RMK A01 T00171033  RH  069%=      5-min Rain = 0
KSC1 171031Z 33006KT 02/M03 A3009 RMK A01 T00181033  RH  069%=      5-min Rain = 0
KSC1 171032Z 33004KT 02/M03 A3009 RMK A01 T00181034  RH  068%=      5-min Rain = 0
KSC1 171033Z 33005KT 02/M03 A3009 RMK A01 T00181034  RH  068%=      5-min Rain = 0
KSC1 171034Z 34005KT 02/M04 A3009 RMK A01 T00181035  RH  068%=      5-min Rain = 0
KSC1 171035Z 33004KT 02/M04 A3009 RMK A01 T00181035  RH  068%=      5-min Rain = 0
KSC1 171036Z 35004KT 02/M04 A3009 RMK A01 T00171035  RH  068%=      5-min Rain = 0
KSC1 171037Z 34003KT 02/M03 A3009 RMK A01 T00171034  RH  069%=      5-min Rain = 0
KSC1 171038Z 01002KT 02/M03 A3009 RMK A01 T00171034  RH  068%=      5-min Rain = 0
KSC1 171039Z 00001KT 02/M03 A3009 RMK A01 T00181034  RH  068%=      5-min Rain = 0
KSC1 171040Z 00001KT 02/M03 A3009 RMK A01 T00171034  RH  069%=      5-min Rain = 0
KSC1 171041Z 34001KT 02/M03 A3009 RMK A01 T00181034  RH  069%=      5-min Rain = 0
KSC1 171042Z 34000KT 02/M03 A3009 RMK A01 T00171034  RH  069%=      5-min Rain = 0
KSC1 171043Z 00000KT 02/M03 A3009 RMK A01 T00171034  RH  069%=      5-min Rain = 0
KSC1 171044Z 34000KT 02/M04 A3009 RMK A01 T00161035  RH  069%=      5-min Rain = 0
KSC1 171045Z 27000KT 02/M04 A3009 RMK A01 T00151035  RH  069%=      5-min Rain = 0
KSC1 171046Z 19001KT 02/M04 A3009 RMK A01 T00151035  RH  069%=      5-min Rain = 0
KSC1 171047Z 17002KT 01/M04 A3009 RMK A01 T00141035  RH  070%=      5-min Rain = 0
KSC1 171048Z 16002KT 01/M04 A3009 RMK A01 T00131036  RH  070%=      5-min Rain = 0
KSC1 171049Z 15002KT 01/M04 A3009 RMK A01 T00121036  RH  071%=      5-min Rain = 0
KSC1 171050Z 14002KT 01/M04 A3009 RMK A01 T00121035  RH  071%=      5-min Rain = 0
KSC1 171051Z 14002KT 01/M04 A3009 RMK A01 T00111035  RH  071%=      5-min Rain = 0
KSC1 171052Z 15003KT 01/M04 A3009 RMK A01 T00111036  RH  071%=      5-min Rain = 0
KSC1 171053Z 15002KT 01/M04 A3009 RMK A01 T00101037  RH  071%=      5-min Rain = 0
KSC1 171054Z 15002KT 01/M04 A3009 RMK A01 T00091037  RH  071%=      5-min Rain = 0
KSC1 171055Z 13003KT 01/M04 A3009 RMK A01 T00091036  RH  072%=      5-min Rain = 0
KSC1 171056Z 12003KT 01/M04 A3009 RMK A01 T00091036  RH  072%=      5-min Rain = 0
KSC1 171057Z 12003KT 01/M04 A3009 RMK A01 T00081036  RH  072%=      5-min Rain = 0
KSC1 171058Z 12003KT 01/M04 A3009 RMK A01 T00081036  RH  072%=      5-min Rain = 0
KSC1 171059Z 12002KT 01/M04 A3009 RMK A01 T00071036  RH  073%=      5-min Rain = 0
KSC1 171100Z 11002KT 01/M04 A3009 RMK A01 T00071036  RH  073%=      5-min Rain = 0
KSC1 171101Z 10003KT 01/M04 A3009 RMK A01 T00071035  RH  074%=      5-min Rain = 0
KSC1 171102Z 08003KT 01/M03 A3009 RMK A01 T00081033  RH  074%=      5-min Rain = 0
KSC1 171103Z 08003KT 01/M03 A3009 RMK A01 T00091032  RH  074%=      5-min Rain = 0
KSC1 171104Z 07002KT 01/M03 A3009 RMK A01 T00101031  RH  074%=      5-min Rain = 0
KSC1 171105Z 08001KT 01/M03 A3009 RMK A01 T00111030  RH  074%=      5-min Rain = 0
KSC1 171106Z 08001KT 01/M03 A3009 RMK A01 T00111030  RH  074%=      5-min Rain = 0
KSC1 171107Z 04001KT 01/M03 A3009 RMK A01 T00121030  RH  074%=      5-min Rain = 0
KSC1 171108Z 04001KT 01/M03 A3009 RMK A01 T00121031  RH  073%=      5-min Rain = 0
KSC1 171109Z 04001KT 01/M03 A3009 RMK A01 T00121033  RH  072%=      5-min Rain = 0
KSC1 171110Z 03001KT 01/M03 A3009 RMK A01 T00111032  RH  073%=      5-min Rain = 0
KSC1 171111Z 27000KT 01/M03 A3009 RMK A01 T00121034  RH  072%=      5-min Rain = 0
KSC1 171112Z 26001KT 01/M04 A3009 RMK A01 T00101037  RH  071%=      5-min Rain = 0
KSC1 171113Z 26000KT 01/M04 A3009 RMK A01 T00091036  RH  072%=      5-min Rain = 0
KSC1 171114Z 25000KT 01/M04 A3009 RMK A01 T00081035  RH  073%=      5-min Rain = 0
KSC1 171115Z 19003KT 01/M04 A3009 RMK A01 T00081035  RH  073%=      5-min Rain = 0
KSC1 171116Z 17001KT 01/M04 A3009 RMK A01 T00071035  RH  073%=      5-min Rain = 0
KSC1 171117Z 18003KT 01/M04 A3009 RMK A01 T00071036  RH  073%=      5-min Rain = 0
KSC1 171118Z 22002KT 01/M04 A3009 RMK A01 T00051037  RH  073%=      5-min Rain = 0
KSC1 171119Z 26003KT 00/M04 A3009 RMK A01 T00041037  RH  074%=      5-min Rain = 0
KSC1 171120Z 23003KT 00/M04 A3009 RMK A01 T00041036  RH  074%=      5-min Rain = 0
KSC1 171121Z 23003KT 01/M04 A3009 RMK A01 T00051035  RH  075%=      5-min Rain = 0
KSC1 171122Z 20002KT 01/M03 A3009 RMK A01 T00061033  RH  075%=      5-min Rain = 0
KSC1 171123Z 20002KT 01/M03 A3009 RMK A01 T00071032  RH  075%=      5-min Rain = 0
KSC1 171124Z 20001KT 01/M03 A3009 RMK A01 T00071034  RH  074%=      5-min Rain = 0
KSC1 171125Z 19002KT 01/M03 A3009 RMK A01 T00071034  RH  074%=      5-min Rain = 0
KSC1 171126Z 18001KT 01/M04 A3009 RMK A01 T00071035  RH  074%=      5-min Rain = 0
KSC1 171127Z 18001KT 01/M04 A3009 RMK A01 T00061035  RH  074%=      5-min Rain = 0
KSC1 171128Z 18001KT 01/M04 A3009 RMK A01 T00061036  RH  074%=      5-min Rain = 0
KSC1 171129Z 18001KT 01/M04 A3009 RMK A01 T00051036  RH  074%=      5-min Rain = 0
KSC1 171130Z 18001KT 01/M04 A3009 RMK A01 T00051035  RH  074%=      5-min Rain = 0
KSC1 171131Z 18001KT 01/M04 A3009 RMK A01 T00051035  RH  075%=      5-min Rain = 0
KSC1 171132Z 18001KT 01/M04 A3009 RMK A01 T00051035  RH  075%=      5-min Rain = 0
KSC1 171133Z 18000KT 00/M04 A3009 RMK A01 T00041035  RH  075%=      5-min Rain = 0
KSC1 171134Z 18000KT 00/M04 A3009 RMK A01 T00041035  RH  075%=      5-min Rain = 0
KSC1 171135Z 18002KT 00/M04 A301 RMK A01 T00041036  RH  075%=      5-min Rain = 0
KSC1 171136Z 20002KT 00/M04 A301 RMK A01 T00031038  RH  074%=      5-min Rain = 0
KSC1 171137Z 20001KT 00/M04 A3009 RMK A01 T00021036  RH  075%=      5-min Rain = 0
KSC1 171138Z 21002KT 00/M04 A301 RMK A01 T00021036  RH  075%=      5-min Rain = 0
KSC1 171139Z 23002KT 00/M04 A3009 RMK A01 T00021036  RH  076%=      5-min Rain = 0
KSC1 171140Z 22003KT 00/M04 A3009 RMK A01 T00021035  RH  076%=      5-min Rain = 0
KSC1 171141Z 22002KT 01/M03 A3009 RMK A01 T00051032  RH  077%=      5-min Rain = 0
KSC1 171142Z 21002KT 01/M03 A3009 RMK A01 T00081028  RH  077%=      5-min Rain = 0
KSC1 171143Z 18002KT 01/M03 A3009 RMK A01 T00111028  RH  076%=      5-min Rain = 0
KSC1 171144Z 16004KT 01/M03 A3009 RMK A01 T00111029  RH  074%=      5-min Rain = 0
KSC1 171145Z 16003KT 01/M03 A3009 RMK A01 T00111031  RH  074%=      5-min Rain = 0
KSC1 171146Z 16004KT 01/M03 A3009 RMK A01 T00111032  RH  073%=      5-min Rain = 0
KSC1 171147Z 16004KT 01/M03 A3009 RMK A01 T00101032  RH  073%=      5-min Rain = 0
KSC1 171148Z 16003KT 01/M03 A3009 RMK A01 T00101032  RH  074%=      5-min Rain = 0
KSC1 171149Z 16002KT 01/M03 A3009 RMK A01 T00101031  RH  074%=      5-min Rain = 0
KSC1 171150Z 16002KT 01/M03 A3009 RMK A01 T00101032  RH  074%=      5-min Rain = 0
KSC1 171151Z 19002KT 01/M03 A3009 RMK A01 T00101031  RH  074%=      5-min Rain = 0
KSC1 171152Z 20002KT 01/M03 A3009 RMK A01 T00101031  RH  074%=      5-min Rain = 0
KSC1 171153Z 22002KT 01/M03 A3009 RMK A01 T00121030  RH  074%=      5-min Rain = 0
KSC1 171154Z 26003KT 01/M03 A3009 RMK A01 T00121031  RH  073%=      5-min Rain = 0
KSC1 171155Z 29006KT 01/M03 A3009 RMK A01 T00121032  RH  073%=      5-min Rain = 0
KSC1 171156Z 29007KT 01/M03 A3009 RMK A01 T00121033  RH  072%=      5-min Rain = 0
KSC1 171157Z 28007KT 01/M03 A3009 RMK A01 T00121033  RH  072%=      5-min Rain = 0
KSC1 171158Z 27006KT 01/M03 A3009 RMK A01 T00131033  RH  072%=      5-min Rain = 0
KSC1 171159Z 27005KT 01/M03 A3009 RMK A01 T00131032  RH  072%=      5-min Rain = 0
KSC1 171200Z 26004KT 01/M03 A3009 RMK A01 T00141032  RH  071%=      5-min Rain = 0
KSC1 171201Z 26004KT 02/M03 A3009 RMK A01 T00151032  RH  071%=      5-min Rain = 0
KSC1 171202Z 26003KT 02/M03 A3009 RMK A01 T00151032  RH  071%=      5-min Rain = 0
KSC1 171203Z 26003KT 02/M03 A3009 RMK A01 T00161031  RH  071%=      5-min Rain = 0
KSC1 171204Z 23002KT 02/M03 A3009 RMK A01 T00161031  RH  071%=      5-min Rain = 0
KSC1 171205Z 21002KT 02/M03 A3009 RMK A01 T00161031  RH  071%=      5-min Rain = 0
KSC1 171206Z 20002KT 02/M03 A3009 RMK A01 T00161032  RH  070%=      5-min Rain = 0
KSC1 171207Z 19001KT 02/M03 A3009 RMK A01 T00161031  RH  071%=      5-min Rain = 0
KSC1 171208Z 19000KT 02/M03 A3009 RMK A01 T00161032  RH  071%=      5-min Rain = 0
KSC1 171209Z 19001KT 02/M03 A3009 RMK A01 T00151032  RH  071%=      5-min Rain = 0
KSC1 171210Z 20001KT 02/M03 A3009 RMK A01 T00151031  RH  071%=      5-min Rain = 0
KSC1 171211Z 20002KT 02/M03 A3009 RMK A01 T00151031  RH  071%=      5-min Rain = 0
KSC1 171212Z 20002KT 02/M03 A3009 RMK A01 T00151031  RH  072%=      5-min Rain = 0
KSC1 171213Z 19002KT 01/M03 A3009 RMK A01 T00141032  RH  072%=      5-min Rain = 0
KSC1 171214Z 18002KT 01/M03 A3009 RMK A01 T00131033  RH  071%=      5-min Rain = 0
KSC1 171215Z 17003KT 01/M03 A3009 RMK A01 T00121033  RH  072%=      5-min Rain = 0
KSC1 171216Z 16003KT 01/M03 A3009 RMK A01 T00111034  RH  072%=      5-min Rain = 0
KSC1 171217Z 15004KT 01/M03 A3009 RMK A01 T00111034  RH  072%=      5-min Rain = 0
KSC1 171218Z 15004KT 01/M03 A3008 RMK A01 T00101034  RH  073%=      5-min Rain = 0
KSC1 171219Z 15005KT 01/M03 A3008 RMK A01 T00101033  RH  073%=      5-min Rain = 0
KSC1 171220Z 15005KT 01/M03 A3008 RMK A01 T00101032  RH  074%=      5-min Rain = 0
KSC1 171221Z 16004KT 01/M03 A3008 RMK A01 T00091031  RH  074%=      5-min Rain = 0
KSC1 171222Z 17003KT 01/M03 A3008 RMK A01 T00101031  RH  074%=      5-min Rain = 0
KSC1 171223Z 17003KT 01/M03 A3008 RMK A01 T00091030  RH  075%=      5-min Rain = 0
KSC1 171224Z 17002KT 01/M03 A3008 RMK A01 T00101029  RH  075%=      5-min Rain = 0
KSC1 171225Z 17002KT 01/M03 A3008 RMK A01 T00101028  RH  075%=      5-min Rain = 0
KSC1 171226Z 16001KT 01/M03 A3008 RMK A01 T00121027  RH  075%=      5-min Rain = 0
KSC1 171227Z 16000KT 01/M03 A3008 RMK A01 T00121027  RH  075%=      5-min Rain = 0
KSC1 171228Z 12000KT 01/M03 A3008 RMK A01 T00131027  RH  074%=      5-min Rain = 0
KSC1 171229Z 00000KT 01/M03 A3008 RMK A01 T00141027  RH  074%=      5-min Rain = 0
KSC1 171230Z 00000KT 02/M03 A3008 RMK A01 T00161026  RH  074%=      5-min Rain = 0
KSC1 171231Z 00000KT 02/M03 A3008 RMK A01 T00171026  RH  073%=      5-min Rain = 0
KSC1 171232Z 35000KT 02/M03 A3008 RMK A01 T00171027  RH  072%=      5-min Rain = 0
KSC1 171233Z 30001KT 02/M03 A3008 RMK A01 T00161029  RH  072%=      5-min Rain = 0
KSC1 171234Z 30000KT 02/M03 A3008 RMK A01 T00151029  RH  072%=      5-min Rain = 0
KSC1 171235Z 29001KT 02/M03 A3008 RMK A01 T00151029  RH  073%=      5-min Rain = 0
KSC1 171236Z 28001KT 02/M03 A3008 RMK A01 T00161028  RH  073%=      5-min Rain = 0
KSC1 171237Z 26002KT 02/M03 A3008 RMK A01 T00161028  RH  073%=      5-min Rain = 0
KSC1 171238Z 25001KT 02/M03 A3008 RMK A01 T00151030  RH  072%=      5-min Rain = 0
KSC1 171239Z 24002KT 01/M03 A3008 RMK A01 T00131033  RH  071%=      5-min Rain = 0
KSC1 171240Z 22001KT 01/M03 A3008 RMK A01 T00111034  RH  072%=      5-min Rain = 0
KSC1 171241Z 20001KT 01/M03 A3008 RMK A01 T00111034  RH  072%=      5-min Rain = 0
KSC1 171242Z 19002KT 01/M03 A3008 RMK A01 T00091034  RH  073%=      5-min Rain = 0
KSC1 171243Z 18002KT 01/M03 A3008 RMK A01 T00091034  RH  073%=      5-min Rain = 0
KSC1 171244Z 18002KT 01/M03 A3008 RMK A01 T00081033  RH  074%=      5-min Rain = 0
KSC1 171245Z 18003KT 01/M03 A3008 RMK A01 T00081032  RH  074%=      5-min Rain = 0
KSC1 171246Z 19003KT 01/M03 A3008 RMK A01 T00091031  RH  075%=      5-min Rain = 0
KSC1 171247Z 20002KT 01/M03 A3008 RMK A01 T00091032  RH  074%=      5-min Rain = 0
KSC1 171248Z 21003KT 01/M03 A3008 RMK A01 T00091031  RH  074%=      5-min Rain = 0
KSC1 171249Z 22003KT 01/M03 A3008 RMK A01 T00091030  RH  075%=      5-min Rain = 0
KSC1 171250Z 22003KT 01/M03 A3008 RMK A01 T00091029  RH  075%=      5-min Rain = 0
KSC1 171251Z 24002KT 01/M03 A3008 RMK A01 T00101028  RH  075%=      5-min Rain = 0
KSC1 171252Z 25002KT 01/M03 A3008 RMK A01 T00111028  RH  075%=      5-min Rain = 0
KSC1 171253Z 25002KT 01/M03 A3008 RMK A01 T00131027  RH  075%=      5-min Rain = 0
KSC1 171254Z 24002KT 01/M03 A3008 RMK A01 T00141027  RH  074%=      5-min Rain = 0
KSC1 171255Z 23002KT 02/M02 A3008 RMK A01 T00171024  RH  074%=      5-min Rain = 0
KSC1 171256Z 21002KT 02/M02 A3008 RMK A01 T00191023  RH  074%=      5-min Rain = 0
KSC1 171257Z 20003KT 02/M02 A3008 RMK A01 T00201024  RH  073%=      5-min Rain = 0
KSC1 171258Z 21004KT 02/M02 A3008 RMK A01 T00211024  RH  072%=      5-min Rain = 0
KSC1 171259Z 21004KT 02/M02 A3008 RMK A01 T00221023  RH  072%=      5-min Rain = 0
KSC1 171300Z 22003KT 03/M02 A3008 RMK A01 T00251022  RH  072%=      5-min Rain = 0
KSC1 171301Z 22003KT 03/M02 A3008 RMK A01 T00261022  RH  071%=      5-min Rain = 0
KSC1 171302Z 21003KT 03/M02 A3008 RMK A01 T00261023  RH  070%=      5-min Rain = 0
KSC1 171303Z 23001KT 03/M02 A3008 RMK A01 T00261024  RH  070%=      5-min Rain = 0
KSC1 171304Z 34004KT 03/M03 A3008 RMK A01 T00261025  RH  070%=      5-min Rain = 0
KSC1 171305Z 33007KT 03/M03 A3008 RMK A01 T00251027  RH  069%=      5-min Rain = 0
KSC1 171306Z 33008KT 02/M03 A3008 RMK A01 T00231029  RH  068%=      5-min Rain = 0
KSC1 171307Z 33009KT 02/M03 A3008 RMK A01 T00221031  RH  068%=      5-min Rain = 0
KSC1 171308Z 33007KT 02/M03 A3008 RMK A01 T00201032  RH  068%=      5-min Rain = 0
KSC1 171309Z 33005KT 02/M03 A3008 RMK A01 T00201033  RH  068%=      5-min Rain = 0
KSC1 171310Z 33006KT 02/M03 A3008 RMK A01 T00191033  RH  068%=      5-min Rain = 0
KSC1 171311Z 33005KT 02/M03 A3008 RMK A01 T00191033  RH  068%=      5-min Rain = 0
KSC1 171312Z 33004KT 02/M03 A3008 RMK A01 T00191033  RH  068%=      5-min Rain = 0
KSC1 171313Z 33005KT 02/M03 A3008 RMK A01 T00191033  RH  068%=      5-min Rain = 0
KSC1 171314Z 33004KT 02/M03 A3008 RMK A01 T00191033  RH  068%=      5-min Rain = 0
KSC1 171315Z 32004KT 02/M03 A3008 RMK A01 T00201033  RH  068%=      5-min Rain = 0
KSC1 171316Z 32005KT 02/M03 A3008 RMK A01 T00201032  RH  068%=      5-min Rain = 0
KSC1 171317Z 31004KT 02/M03 A3008 RMK A01 T00211032  RH  068%=      5-min Rain = 0
KSC1 171318Z 31004KT 02/M03 A3008 RMK A01 T00221032  RH  068%=      5-min Rain = 0
KSC1 171319Z 30004KT 02/M03 A3008 RMK A01 T00221031  RH  068%=      5-min Rain = 0
KSC1 171320Z 31004KT 02/M03 A3009 RMK A01 T00241030  RH  068%=      5-min Rain = 0
KSC1 171321Z 30004KT 03/M03 A3009 RMK A01 T00251029  RH  068%=      5-min Rain = 0
KSC1 171322Z 31004KT 03/M03 A3009 RMK A01 T00271028  RH  067%=      5-min Rain = 0
KSC1 171323Z 31003KT 03/M03 A3009 RMK A01 T00281027  RH  067%=      5-min Rain = 0
KSC1 171324Z 31003KT 03/M03 A3009 RMK A01 T00301026  RH  067%=      5-min Rain = 0
KSC1 171325Z 32002KT 03/M03 A3009 RMK A01 T00311026  RH  066%=      5-min Rain = 0
KSC1 171326Z 31002KT 03/M03 A3009 RMK A01 T00321025  RH  066%=      5-min Rain = 0
KSC1 171327Z 31002KT 03/M02 A3009 RMK A01 T00331024  RH  066%=      5-min Rain = 0
KSC1 171328Z 31002KT 04/M02 A3009 RMK A01 T00351024  RH  065%=      5-min Rain = 0
KSC1 171329Z 30000KT 04/M02 A3009 RMK A01 T00371024  RH  065%=      5-min Rain = 0
KSC1 171330Z 29000KT 04/M02 A3009 RMK A01 T00381023  RH  064%=      5-min Rain = 0
KSC1 171331Z 00000KT 04/M02 A3009 RMK A01 T00401022  RH  064%=      5-min Rain = 0
KSC1 171332Z 25000KT 04/M02 A3009 RMK A01 T00411021  RH  064%=      5-min Rain = 0
KSC1 171333Z 18001KT 04/M02 A3009 RMK A01 T00421022  RH  063%=      5-min Rain = 0
KSC1 171334Z 18001KT 04/M02 A3009 RMK A01 T00441021  RH  063%=      5-min Rain = 0
KSC1 171335Z 18001KT 05/M02 A3009 RMK A01 T00461020  RH  062%=      5-min Rain = 0
KSC1 171336Z 15001KT 05/M02 A3009 RMK A01 T00471020  RH  062%=      5-min Rain = 0
KSC1 171337Z 13002KT 05/M02 A3008 RMK A01 T00491020  RH  061%=      5-min Rain = 0
KSC1 171338Z 14002KT 05/M02 A3008 RMK A01 T00491020  RH  061%=      5-min Rain = 0
KSC1 171339Z 15002KT 05/M02 A3008 RMK A01 T00501021  RH  060%=      5-min Rain = 0
KSC1 171340Z 15002KT 05/M02 A3008 RMK A01 T00511021  RH  060%=      5-min Rain = 0
KSC1 171341Z 16003KT 05/M02 A3008 RMK A01 T00511021  RH  060%=      5-min Rain = 0
KSC1 171342Z 17003KT 05/M02 A3008 RMK A01 T00521020  RH  060%=      5-min Rain = 0
KSC1 171343Z 16003KT 05/M02 A3008 RMK A01 T00531020  RH  059%=      5-min Rain = 0
KSC1 171344Z 16003KT 05/M02 A3008 RMK A01 T00541019  RH  059%=      5-min Rain = 0
KSC1 171345Z 16003KT 06/M02 A3008 RMK A01 T00551019  RH  059%=      5-min Rain = 0
KSC1 171346Z 15003KT 06/M02 A3008 RMK A01 T00551019  RH  059%=      5-min Rain = 0
KSC1 171347Z 15003KT 06/M02 A3008 RMK A01 T00551020  RH  058%=      5-min Rain = 0
KSC1 171348Z 15003KT 06/M02 A3008 RMK A01 T00551020  RH  058%=      5-min Rain = 0
KSC1 171349Z 15003KT 06/M02 A3008 RMK A01 T00551020  RH  058%=      5-min Rain = 0
KSC1 171350Z 14003KT 06/M02 A3008 RMK A01 T00561019  RH  058%=      5-min Rain = 0
KSC1 171351Z 14003KT 06/M02 A3008 RMK A01 T00561019  RH  058%=      5-min Rain = 0
KSC1 171352Z 14004KT 06/M02 A3008 RMK A01 T00571018  RH  058%=      5-min Rain = 0
KSC1 171353Z 15004KT 06/M02 A3008 RMK A01 T00581018  RH  058%=      5-min Rain = 0
KSC1 171354Z 15004KT 06/M02 A3008 RMK A01 T00591018  RH  058%=      5-min Rain = 0
KSC1 171355Z 15004KT 06/M02 A3008 RMK A01 T00601017  RH  058%=      5-min Rain = 0
KSC1 171356Z 15004KT 06/M02 A3008 RMK A01 T00621017  RH  057%=      5-min Rain = 0
KSC1 171357Z 15004KT 06/M02 A3008 RMK A01 T00631016  RH  057%=      5-min Rain = 0
KSC1 171358Z 15005KT 06/M02 A3008 RMK A01 T00641016  RH  056%=      5-min Rain = 0
KSC1 171359Z 15004KT 07/M02 A3008 RMK A01 T00661016  RH  056%=      5-min Rain = 0
KSC1 171400Z 15004KT 07/M02 A3008 RMK A01 T00681016  RH  055%=      5-min Rain = 0
KSC1 171401Z 15003KT 07/M02 A3008 RMK A01 T00701015  RH  055%=      5-min Rain = 0
KSC1 171402Z 15003KT 07/M01 A3008 RMK A01 T00721014  RH  054%=      5-min Rain = 0
KSC1 171403Z 15003KT 07/M01 A3008 RMK A01 T00741014  RH  054%=      5-min Rain = 0
KSC1 171404Z 15002KT 08/M01 A3008 RMK A01 T00771013  RH  053%=      5-min Rain = 0
KSC1 171405Z 12001KT 08/M01 A3008 RMK A01 T00791013  RH  052%=      5-min Rain = 0
KSC1 171406Z 11001KT 08/M01 A3008 RMK A01 T00811012  RH  052%=      5-min Rain = 0
KSC1 171407Z 10001KT 08/M01 A3008 RMK A01 T00831011  RH  051%=      5-min Rain = 0
KSC1 171408Z 08001KT 09/M01 A3008 RMK A01 T00861011  RH  051%=      5-min Rain = 0
KSC1 171409Z 08001KT 09/M01 A3008 RMK A01 T00881011  RH  050%=      5-min Rain = 0
KSC1 171410Z 06001KT 09/M01 A3008 RMK A01 T00901012  RH  049%=      5-min Rain = 0
KSC1 171411Z 06001KT 09/M01 A3008 RMK A01 T00911011  RH  049%=      5-min Rain = 0
KSC1 171412Z 06001KT 09/M01 A3008 RMK A01 T00931010  RH  049%=      5-min Rain = 0
KSC1 171413Z 08001KT 10/M01 A3008 RMK A01 T00951010  RH  048%=      5-min Rain = 0
KSC1 171414Z 06001KT 10/M01 A3008 RMK A01 T00961010  RH  048%=      5-min Rain = 0
KSC1 171415Z 06002KT 10/M01 A3008 RMK A01 T00981009  RH  047%=      5-min Rain = 0
KSC1 171416Z 06002KT 10/M01 A3008 RMK A01 T01001010  RH  046%=      5-min Rain = 0
KSC1 171417Z 04002KT 10/M01 A3008 RMK A01 T01011011  RH  046%=      5-min Rain = 0
KSC1 171418Z 03002KT 10/M01 A3008 RMK A01 T01021010  RH  045%=      5-min Rain = 0
KSC1 171419Z 02002KT 10/M01 A3008 RMK A01 T01041010  RH  045%=      5-min Rain = 0
KSC1 171420Z 02003KT 11/M01 A3008 RMK A01 T01051009  RH  045%=      5-min Rain = 0
KSC1 171421Z 02003KT 11/M01 A3008 RMK A01 T01071009  RH  045%=      5-min Rain = 0
KSC1 171422Z 01004KT 11/M01 A3008 RMK A01 T01081008  RH  045%=      5-min Rain = 0
KSC1 171423Z 01004KT 11/M01 A3008 RMK A01 T01091009  RH  044%=      5-min Rain = 0
KSC1 171424Z 01004KT 11/M01 A3008 RMK A01 T01081010  RH  044%=      5-min Rain = 0
KSC1 171425Z 01004KT 11/M01 A3008 RMK A01 T01071011  RH  044%=      5-min Rain = 0
KSC1 171426Z 01003KT 11/M01 A3008 RMK A01 T01071011  RH  044%=      5-min Rain = 0
KSC1 171427Z 01003KT 11/M01 A3008 RMK A01 T01071010  RH  044%=      5-min Rain = 0
KSC1 171428Z 01003KT 11/M01 A3008 RMK A01 T01081010  RH  044%=      5-min Rain = 0
KSC1 171429Z 00003KT 11/M01 A3008 RMK A01 T01091008  RH  044%=      5-min Rain = 0
KSC1 171430Z 02004KT 11/M01 A3008 RMK A01 T01121008  RH  043%=      5-min Rain = 0
KSC1 171431Z 02004KT 11/M01 A3008 RMK A01 T01131009  RH  043%=      5-min Rain = 0
KSC1 171432Z 01004KT 11/M01 A3008 RMK A01 T01141009  RH  042%=      5-min Rain = 0
KSC1 171433Z 00004KT 12/M01 A3008 RMK A01 T01151010  RH  042%=      5-min Rain = 0
KSC1 171434Z 01004KT 12/M01 A3008 RMK A01 T01161010  RH  042%=      5-min Rain = 0
KSC1 171435Z 01004KT 12/M01 A3008 RMK A01 T01161010  RH  042%=      5-min Rain = 0
KSC1 171436Z 35003KT 12/M01 A3008 RMK A01 T01171009  RH  042%=      5-min Rain = 0
KSC1 171437Z 36003KT 12/M01 A3009 RMK A01 T01181010  RH  041%=      5-min Rain = 0
KSC1 171438Z 00003KT 12/M01 A3009 RMK A01 T01181010  RH  041%=      5-min Rain = 0
KSC1 171439Z 36003KT 12/M01 A3009 RMK A01 T01181011  RH  041%=      5-min Rain = 0
KSC1 171440Z 34004KT 12/M01 A3009 RMK A01 T01191011  RH  040%=      5-min Rain = 0
KSC1 171441Z 35004KT 12/M01 A3009 RMK A01 T01201012  RH  040%=      5-min Rain = 0
KSC1 171442Z 35003KT 12/M01 A3009 RMK A01 T01201013  RH  040%=      5-min Rain = 0
KSC1 171443Z 36002KT 12/M01 A3009 RMK A01 T01201012  RH  040%=      5-min Rain = 0
KSC1 171444Z 35002KT 12/M01 A3009 RMK A01 T01211011  RH  040%=      5-min Rain = 0
KSC1 171445Z 32002KT 12/M01 A3009 RMK A01 T01231010  RH  040%=      5-min Rain = 0
KSC1 171446Z 31002KT 12/M01 A3009 RMK A01 T01241011  RH  039%=      5-min Rain = 0
KSC1 171447Z 02001KT 13/M01 A3009 RMK A01 T01251010  RH  039%=      5-min Rain = 0
KSC1 171448Z 35001KT 13/M01 A3009 RMK A01 T01261010  RH  039%=      5-min Rain = 0
KSC1 171449Z 01001KT 13/M01 A3009 RMK A01 T01281010  RH  039%=      5-min Rain = 0
KSC1 171450Z 03001KT 13/M01 A3009 RMK A01 T01291010  RH  038%=      5-min Rain = 0
KSC1 171451Z 01001KT 13/M01 A3009 RMK A01 T01291010  RH  038%=      5-min Rain = 0
KSC1 171452Z 02001KT 13/M01 A3009 RMK A01 T01301010  RH  038%=      5-min Rain = 0
KSC1 171453Z 36001KT 13/M01 A3009 RMK A01 T01301010  RH  038%=      5-min Rain = 0
KSC1 171454Z 01001KT 13/M01 A3009 RMK A01 T01311009  RH  038%=      5-min Rain = 0
KSC1 171455Z 35002KT 13/M01 A3009 RMK A01 T01321009  RH  038%=      5-min Rain = 0
KSC1 171456Z 03001KT 13/M01 A3008 RMK A01 T01331008  RH  038%=      5-min Rain = 0
KSC1 171457Z 04000KT 13/M01 A3008 RMK A01 T01341009  RH  037%=      5-min Rain = 0
KSC1 171458Z 05000KT 14/M01 A3008 RMK A01 T01351008  RH  037%=      5-min Rain = 0
KSC1 171459Z 00001KT 14/M01 A3008 RMK A01 T01361008  RH  037%=      5-min Rain = 0
KSC1 171500Z 03000KT 14/M01 A3008 RMK A01 T01371007  RH  037%=      5-min Rain = 0
KSC1 171501Z 03000KT 14/M01 A3008 RMK A01 T01391006  RH  037%=      5-min Rain = 0
KSC1 171502Z 09001KT 14/M01 A3008 RMK A01 T01401007  RH  036%=      5-min Rain = 0
KSC1 171503Z 12002KT 14/M01 A3008 RMK A01 T01411006  RH  036%=      5-min Rain = 0
KSC1 171504Z 13001KT 14/M01 A3008 RMK A01 T01431006  RH  036%=      5-min Rain = 0
KSC1 171505Z 13002KT 14/M01 A3008 RMK A01 T01441006  RH  036%=      5-min Rain = 0
KSC1 171506Z 15002KT 15/M01 A3008 RMK A01 T01451006  RH  036%=      5-min Rain = 0
KSC1 171507Z 15003KT 15/M01 A3008 RMK A01 T01451006  RH  035%=      5-min Rain = 0
KSC1 171508Z 16002KT 15/M01 A3008 RMK A01 T01451006  RH  035%=      5-min Rain = 0
KSC1 171509Z 15001KT 15/M01 A3008 RMK A01 T01461006  RH  035%=      5-min Rain = 0
KSC1 171510Z 15002KT 15/M01 A3008 RMK A01 T01471005  RH  035%=      5-min Rain = 0
KSC1 171511Z 15002KT 15/M01 A3008 RMK A01 T01481005  RH  035%=      5-min Rain = 0
KSC1 171512Z 13002KT 15/M01 A3008 RMK A01 T01481005  RH  035%=      5-min Rain = 0
KSC1 171513Z 12002KT 15/M00 A3008 RMK A01 T01501004  RH  035%=      5-min Rain = 0
KSC1 171514Z 13001KT 15/M00 A3008 RMK A01 T01511004  RH  035%=      5-min Rain = 0
KSC1 171515Z 10001KT 15/M00 A3008 RMK A01 T01531003  RH  034%=      5-min Rain = 0
KSC1 171516Z 16001KT 15/M00 A3008 RMK A01 T01541003  RH  034%=      5-min Rain = 0
KSC1 171517Z 06000KT 16/M00 A3008 RMK A01 T01551003  RH  034%=      5-min Rain = 0
KSC1 171518Z 28000KT 16/M00 A3008 RMK A01 T01551003  RH  034%=      5-min Rain = 0
KSC1 171519Z 02002KT 16/M00 A3008 RMK A01 T01561002  RH  034%=      5-min Rain = 0
KSC1 171520Z 04002KT 16/M00 A3008 RMK A01 T01581001  RH  034%=      5-min Rain = 0
KSC1 171521Z 03002KT 16/00 A3008 RMK A01 T016000-0  RH  034%=      5-min Rain = 0
KSC1 171522Z 03001KT 16/00 A3008 RMK A01 T01610000  RH  033%=      5-min Rain = 0
KSC1 171523Z 03000KT 16/00 A3008 RMK A01 T01630001  RH  033%=      5-min Rain = 0
KSC1 171524Z 24001KT 17/00 A3008 RMK A01 T01650003  RH  033%=      5-min Rain = 0
KSC1 171525Z 26002KT 17/00 A3008 RMK A01 T01670001  RH  032%=      5-min Rain = 0
KSC1 171526Z 25002KT 17/00 A3008 RMK A01 T016700-0  RH  032%=      5-min Rain = 0
KSC1 171527Z 26000KT 17/00 A3008 RMK A01 T01670000  RH  032%=      5-min Rain = 0
KSC1 171528Z 11000KT 17/00 A3008 RMK A01 T01670000  RH  032%=      5-min Rain = 0
KSC1 171529Z 28002KT 17/00 A3008 RMK A01 T01680001  RH  032%=      5-min Rain = 0
KSC1 171530Z 21002KT 17/00 A3007 RMK A01 T01700003  RH  032%=      5-min Rain = 0
KSC1 171531Z 20003KT 17/00 A3007 RMK A01 T01720004  RH  032%=      5-min Rain = 0
KSC1 171532Z 21005KT 17/01 A3008 RMK A01 T01730005  RH  032%=      5-min Rain = 0
KSC1 171533Z 19004KT 18/01 A3008 RMK A01 T01750006  RH  032%=      5-min Rain = 0
KSC1 171534Z 18003KT 18/01 A3008 RMK A01 T01770007  RH  032%=      5-min Rain = 0
KSC1 171535Z 19003KT 18/01 A3008 RMK A01 T01790008  RH  032%=      5-min Rain = 0
KSC1 171536Z 19003KT 18/01 A3008 RMK A01 T01810008  RH  031%=      5-min Rain = 0
KSC1 171537Z 12002KT 18/01 A3008 RMK A01 T01820008  RH  031%=      5-min Rain = 0
KSC1 171538Z 22001KT 18/01 A3008 RMK A01 T01830008  RH  031%=      5-min Rain = 0
KSC1 171539Z 28000KT 18/01 A3008 RMK A01 T01840008  RH  031%=      5-min Rain = 0
KSC1 171540Z 30001KT 19/01 A3007 RMK A01 T01850009  RH  030%=      5-min Rain = 0
KSC1 171541Z 27001KT 19/01 A3007 RMK A01 T01870009  RH  030%=      5-min Rain = 0
KSC1 171542Z 16003KT 19/01 A3007 RMK A01 T01880009  RH  030%=      5-min Rain = 0
KSC1 171543Z 16006KT 19/01 A3007 RMK A01 T01890008  RH  030%=      5-min Rain = 0
KSC1 171544Z 17006KT 19/01 A3007 RMK A01 T01900007  RH  029%=      5-min Rain = 0
KSC1 171545Z 17006KT 19/01 A3007 RMK A01 T01910007  RH  029%=      5-min Rain = 0
KSC1 171546Z 15004KT 19/01 A3007 RMK A01 T01910006  RH  029%=      5-min Rain = 0
KSC1 171547Z 14002KT 19/01 A3007 RMK A01 T01900006  RH  029%=      5-min Rain = 0
KSC1 171548Z 14003KT 19/01 A3007 RMK A01 T01900007  RH  029%=      5-min Rain = 0
KSC1 171549Z 16005KT 19/01 A3007 RMK A01 T01910007  RH  029%=      5-min Rain = 0
KSC1 171550Z 19005KT 19/01 A3007 RMK A01 T01920008  RH  029%=      5-min Rain = 0
KSC1 171551Z 16005KT 19/01 A3007 RMK A01 T01910008  RH  029%=      5-min Rain = 0
KSC1 171552Z 17005KT 19/01 A3007 RMK A01 T01920007  RH  029%=      5-min Rain = 0
KSC1 171553Z 18004KT 19/01 A3007 RMK A01 T01920007  RH  029%=      5-min Rain = 0
KSC1 171554Z 17004KT 19/01 A3007 RMK A01 T01920007  RH  029%=      5-min Rain = 0
KSC1 171555Z 18005KT 19/01 A3007 RMK A01 T01930007  RH  029%=      5-min Rain = 0
KSC1 171556Z 18005KT 19/01 A3007 RMK A01 T01930008  RH  029%=      5-min Rain = 0
KSC1 171557Z 17005KT 20/01 A3007 RMK A01 T01950008  RH  029%=      5-min Rain = 0
KSC1 171558Z 18005KT 20/01 A3007 RMK A01 T01960008  RH  028%=      5-min Rain = 0
KSC1 171559Z 21004KT 20/01 A3007 RMK A01 T01970009  RH  028%=      5-min Rain = 0
KSC1 171600Z 21006KT 20/01 A3007 RMK A01 T01990010  RH  028%=      5-min Rain = 0
KSC1 171601Z 22006KT 20/01 A3007 RMK A01 T02000008  RH  028%=      5-min Rain = 0
KSC1 171602Z 22005KT 20/01 A3007 RMK A01 T02000008  RH  028%=      5-min Rain = 0
KSC1 171603Z 22005KT 20/01 A3007 RMK A01 T02000007  RH  028%=      5-min Rain = 0
KSC1 171604Z 21005KT 20/01 A3007 RMK A01 T02000007  RH  028%=      5-min Rain = 0
KSC1 171605Z 23005KT 20/01 A3007 RMK A01 T02000007  RH  028%=      5-min Rain = 0
KSC1 171606Z 22004KT 20/01 A3007 RMK A01 T02000008  RH  028%=      5-min Rain = 0
KSC1 171607Z 25003KT 20/01 A3007 RMK A01 T02000007  RH  028%=      5-min Rain = 0
KSC1 171608Z 25006KT 20/01 A3006 RMK A01 T02020009  RH  028%=      5-min Rain = 0
KSC1 171609Z 21003KT 20/01 A3006 RMK A01 T02030009  RH  027%=      5-min Rain = 0
KSC1 171610Z 18002KT 20/01 A3006 RMK A01 T02040010  RH  027%=      5-min Rain = 0
KSC1 171611Z 20004KT 21/01 A3006 RMK A01 T02050010  RH  027%=      5-min Rain = 0
KSC1 171612Z 23006KT 21/01 A3006 RMK A01 T02060009  RH  027%=      5-min Rain = 0
KSC1 171613Z 19007KT 21/01 A3006 RMK A01 T02060008  RH  027%=      5-min Rain = 0
KSC1 171614Z 20006KT 21/01 A3006 RMK A01 T02060007  RH  026%=      5-min Rain = 0
KSC1 171615Z 20005KT 21/01 A3006 RMK A01 T02070006  RH  026%=      5-min Rain = 0
KSC1 171616Z 21005KT 21/01 A3006 RMK A01 T02070007  RH  026%=      5-min Rain = 0
KSC1 171617Z 20004KT 21/01 A3006 RMK A01 T02070007  RH  026%=      5-min Rain = 0
KSC1 171618Z 18008KT 21/01 A3006 RMK A01 T02080007  RH  026%=      5-min Rain = 0
KSC1 171619Z 19007KT 21/01 A3006 RMK A01 T02080005  RH  026%=      5-min Rain = 0
KSC1 171620Z 22003KT 21/01 A3006 RMK A01 T02080007  RH  026%=      5-min Rain = 0
KSC1 171621Z 17003KT 21/01 A3006 RMK A01 T02100010  RH  026%=      5-min Rain = 0
KSC1 171622Z 19006KT 21/01 A3006 RMK A01 T02130010  RH  026%=      5-min Rain = 0
KSC1 171623Z 19004KT 22/01 A3006 RMK A01 T02160010  RH  025%=      5-min Rain = 0
KSC1 171624Z 15003KT 22/01 A3006 RMK A01 T02180009  RH  025%=      5-min Rain = 0
KSC1 171625Z 19005KT 22/01 A3006 RMK A01 T02180010  RH  025%=      5-min Rain = 0
KSC1 171626Z 19005KT 22/01 A3006 RMK A01 T02190008  RH  025%=      5-min Rain = 0
KSC1 171627Z 20005KT 22/01 A3006 RMK A01 T02170006  RH  025%=      5-min Rain = 0
KSC1 171628Z 20007KT 22/01 A3006 RMK A01 T02150008  RH  025%=      5-min Rain = 0
KSC1 171629Z 16004KT 21/01 A3006 RMK A01 T02130009  RH  026%=      5-min Rain = 0
KSC1 171630Z 15003KT 21/01 A3006 RMK A01 T02120009  RH  026%=      5-min Rain = 0
KSC1 171631Z 13002KT 21/01 A3006 RMK A01 T02120009  RH  026%=      5-min Rain = 0
KSC1 171632Z 18004KT 21/01 A3006 RMK A01 T02130009  RH  026%=      5-min Rain = 0
KSC1 171633Z 22005KT 21/01 A3006 RMK A01 T02140013  RH  026%=      5-min Rain = 0
KSC1 171634Z 22004KT 22/02 A3006 RMK A01 T02160017  RH  027%=      5-min Rain = 0
KSC1 171635Z 17004KT 22/01 A3006 RMK A01 T02170013  RH  026%=      5-min Rain = 0
KSC1 171636Z 14003KT 22/01 A3006 RMK A01 T02180011  RH  025%=      5-min Rain = 0
KSC1 171637Z 13002KT 22/01 A3006 RMK A01 T02170010  RH  025%=      5-min Rain = 0
KSC1 171638Z 21003KT 22/01 A3006 RMK A01 T02170011  RH  026%=      5-min Rain = 0
KSC1 171639Z 22002KT 22/01 A3006 RMK A01 T02170012  RH  026%=      5-min Rain = 0
KSC1 171640Z 14003KT 22/01 A3006 RMK A01 T02160012  RH  026%=      5-min Rain = 0
KSC1 171641Z 14003KT 22/01 A3006 RMK A01 T02160013  RH  026%=      5-min Rain = 0
KSC1 171642Z 20003KT 22/02 A3006 RMK A01 T02190017  RH  026%=      5-min Rain = 0
KSC1 171643Z 18005KT 22/02 A3006 RMK A01 T02190018  RH  026%=      5-min Rain = 0
KSC1 171644Z 18006KT 22/02 A3006 RMK A01 T02200020  RH  027%=      5-min Rain = 0
KSC1 171645Z 20004KT 22/03 A3006 RMK A01 T02200025  RH  028%=      5-min Rain = 0
KSC1 171646Z 18005KT 22/02 A3006 RMK A01 T02210024  RH  027%=      5-min Rain = 0
KSC1 171647Z 19004KT 22/02 A3006 RMK A01 T02190020  RH  027%=      5-min Rain = 0
KSC1 171648Z 18004G9KT 22/02 A3006 RMK A01 T02180021  RH  027%=      5-min Rain = 0
KSC1 171649Z 16006KT 22/02 A3006 RMK A01 T02200022  RH  027%=      5-min Rain = 0
KSC1 171650Z 16005KT 22/02 A3006 RMK A01 T02200022  RH  027%=      5-min Rain = 0
KSC1 171651Z 16003KT 22/02 A3006 RMK A01 T02190022  RH  027%=      5-min Rain = 0
KSC1 171652Z 15000KT 22/02 A3005 RMK A01 T02200020  RH  027%=      5-min Rain = 0
KSC1 171653Z 19001KT 22/02 A3005 RMK A01 T02210021  RH  027%=      5-min Rain = 0
KSC1 171654Z 20005KT 22/02 A3005 RMK A01 T02220020  RH  026%=      5-min Rain = 0
KSC1 171655Z 21005KT 22/02 A3005 RMK A01 T02220020  RH  026%=      5-min Rain = 0
KSC1 171656Z 24002KT 22/02 A3005 RMK A01 T02220021  RH  027%=      5-min Rain = 0
KSC1 171657Z 23001KT 22/02 A3005 RMK A01 T02220022  RH  027%=      5-min Rain = 0
KSC1 171658Z 16007KT 22/02 A3005 RMK A01 T02230024  RH  027%=      5-min Rain = 0
KSC1 171659Z 16007KT 22/03 A3005 RMK A01 T02240026  RH  027%=      5-min Rain = 0
KSC1 171700Z 16007KT 23/03 A3005 RMK A01 T02260027  RH  027%=      5-min Rain = 0
KSC1 171701Z 13006KT 23/03 A3005 RMK A01 T02260027  RH  027%=      5-min Rain = 0
KSC1 171702Z 10004KT 23/03 A3005 RMK A01 T02260028  RH  027%=      5-min Rain = 0
KSC1 171703Z 09003KT 23/03 A3005 RMK A01 T02260028  RH  027%=      5-min Rain = 0
KSC1 171704Z 14005KT 23/03 A3005 RMK A01 T02260030  RH  028%=      5-min Rain = 0
KSC1 171705Z 12006KT 23/03 A3005 RMK A01 T02280032  RH  028%=      5-min Rain = 0
KSC1 171706Z 13006KT 23/03 A3005 RMK A01 T02300033  RH  028%=      5-min Rain = 0
KSC1 171707Z 13007KT 23/03 A3005 RMK A01 T02300032  RH  027%=      5-min Rain = 0
KSC1 171708Z 14006KT 23/03 A3005 RMK A01 T02300032  RH  027%=      5-min Rain = 0
KSC1 171709Z 15005KT 23/03 A3004 RMK A01 T02310034  RH  027%=      5-min Rain = 0
KSC1 171710Z 18008KT 23/04 A3004 RMK A01 T02340037  RH  028%=      5-min Rain = 0
KSC1 171711Z 17007KT 23/03 A3004 RMK A01 T02330034  RH  027%=      5-min Rain = 0
KSC1 171712Z 17003KT 23/04 A3004 RMK A01 T02310035  RH  028%=      5-min Rain = 0
KSC1 171713Z 15003KT 23/04 A3004 RMK A01 T02310040  RH  029%=      5-min Rain = 0
KSC1 171714Z 16006KT 23/04 A3004 RMK A01 T02310042  RH  029%=      5-min Rain = 0
KSC1 171715Z 16004KT 23/04 A3004 RMK A01 T02320038  RH  028%=      5-min Rain = 0
KSC1 171716Z 17005KT 23/04 A3004 RMK A01 T02320036  RH  028%=      5-min Rain = 0
KSC1 171717Z 19006KT 23/04 A3004 RMK A01 T02320041  RH  029%=      5-min Rain = 0
KSC1 171718Z 16006KT 23/05 A3004 RMK A01 T02340047  RH  030%=      5-min Rain = 0
KSC1 171719Z 17005KT 24/05 A3004 RMK A01 T02370049  RH  029%=      5-min Rain = 0
KSC1 171720Z 21005KT 24/05 A3004 RMK A01 T02370050  RH  030%=      5-min Rain = 0
KSC1 171721Z 19004KT 24/05 A3004 RMK A01 T02350052  RH  030%=      5-min Rain = 0
KSC1 171722Z 20004KT 24/05 A3004 RMK A01 T02350049  RH  030%=      5-min Rain = 0
KSC1 171723Z 22005KT 24/05 A3004 RMK A01 T02350046  RH  029%=      5-min Rain = 0
KSC1 171724Z 17004KT 24/05 A3004 RMK A01 T02360045  RH  029%=      5-min Rain = 0
KSC1 171725Z 18008KT 24/05 A3004 RMK A01 T02370051  RH  030%=      5-min Rain = 0
KSC1 171726Z 19008KT 24/06 A3004 RMK A01 T02370058  RH  031%=      5-min Rain = 0
KSC1 171727Z 21006KT 24/05 A3004 RMK A01 T02350047  RH  029%=      5-min Rain = 0
KSC1 171728Z 22005KT 23/04 A3004 RMK A01 T02340044  RH  029%=      5-min Rain = 0
KSC1 171729Z 21002KT 23/05 A3004 RMK A01 T02340045  RH  029%=      5-min Rain = 0
KSC1 171730Z 14004KT 23/05 A3004 RMK A01 T02330045  RH  029%=      5-min Rain = 0
KSC1 171731Z 12004KT 23/04 A3004 RMK A01 T02340044  RH  029%=      5-min Rain = 0
KSC1 171732Z 14004KT 24/04 A3004 RMK A01 T02360044  RH  029%=      5-min Rain = 0
KSC1 171733Z 14008KT 24/05 A3004 RMK A01 T02380045  RH  029%=      5-min Rain = 0
KSC1 171734Z 13008KT 24/05 A3004 RMK A01 T02390049  RH  029%=      5-min Rain = 0
KSC1 171735Z 13004KT 24/05 A3004 RMK A01 T02380049  RH  029%=      5-min Rain = 0
KSC1 171736Z 13003KT 24/05 A3004 RMK A01 T02370051  RH  030%=      5-min Rain = 0
KSC1 171737Z 13005KT 24/06 A3004 RMK A01 T02400057  RH  031%=      5-min Rain = 0
KSC1 171738Z 13004KT 24/06 A3004 RMK A01 T02410061  RH  031%=      5-min Rain = 0
KSC1 171739Z 15006KT 24/06 A3004 RMK A01 T02400062  RH  032%=      5-min Rain = 0
KSC1 171740Z 18007KT 24/06 A3004 RMK A01 T02380062  RH  032%=      5-min Rain = 0
KSC1 171741Z 20007KT 24/06 A3004 RMK A01 T02380063  RH  032%=      5-min Rain = 0
KSC1 171742Z 19005KT 24/06 A3004 RMK A01 T02360063  RH  033%=      5-min Rain = 0
KSC1 171743Z 17005KT 24/06 A3003 RMK A01 T02370063  RH  033%=      5-min Rain = 0
KSC1 171744Z 17002KT 24/06 A3003 RMK A01 T02380062  RH  032%=      5-min Rain = 0
KSC1 171745Z 19007KT 24/06 A3003 RMK A01 T02380059  RH  031%=      5-min Rain = 0
KSC1 171746Z 19006KT 24/05 A3003 RMK A01 T02390054  RH  030%=      5-min Rain = 0
KSC1 171747Z 18004KT 24/05 A3003 RMK A01 T02360052  RH  030%=      5-min Rain = 0
KSC1 171748Z 13007KT 24/06 A3003 RMK A01 T02360056  RH  031%=      5-min Rain = 0
KSC1 171749Z 16006KT 24/06 A3003 RMK A01 T02380058  RH  031%=      5-min Rain = 0
KSC1 171750Z 13006KT 24/06 A3003 RMK A01 T02380058  RH  031%=      5-min Rain = 0
KSC1 171751Z 15010KT 24/06 A3003 RMK A01 T02390064  RH  032%=      5-min Rain = 0
KSC1 171752Z 14009KT 24/07 A3003 RMK A01 T02410065  RH  032%=      5-min Rain = 0
KSC1 171753Z 16009KT 24/06 A3003 RMK A01 T02400064  RH  032%=      5-min Rain = 0
KSC1 171754Z 15007KT 24/07 A3003 RMK A01 T02390066  RH  033%=      5-min Rain = 0
KSC1 171755Z 15007KT 24/06 A3003 RMK A01 T02390064  RH  032%=      5-min Rain = 0
KSC1 171756Z 17005KT 24/06 A3003 RMK A01 T02400064  RH  032%=      5-min Rain = 0
KSC1 171757Z 15007KT 24/07 A3003 RMK A01 T02420067  RH  032%=      5-min Rain = 0
KSC1 171758Z 15003KT 24/07 A3003 RMK A01 T02430068  RH  032%=      5-min Rain = 0
KSC1 171759Z 14001G7KT 24/07 A3003 RMK A01 T02430066  RH  032%=      5-min Rain = 0
KSC1 171800Z 12006KT 24/07 A3002 RMK A01 T02430068  RH  032%=      5-min Rain = 0
KSC1 171801Z 19008KT 24/07 A3002 RMK A01 T02440070  RH  033%=      5-min Rain = 0
KSC1 171802Z 20007KT 24/07 A3002 RMK A01 T02430072  RH  034%=      5-min Rain = 0
KSC1 171803Z 16006KT 24/07 A3002 RMK A01 T02410073  RH  034%=      5-min Rain = 0
KSC1 171804Z 14006KT 24/08 A3002 RMK A01 T02430076  RH  034%=      5-min Rain = 0
KSC1 171805Z 13005KT 25/08 A3002 RMK A01 T02460075  RH  033%=      5-min Rain = 0
KSC1 171806Z 13004KT 25/07 A3002 RMK A01 T02470073  RH  033%=      5-min Rain = 0
KSC1 171807Z 16004KT 25/07 A3002 RMK A01 T02490072  RH  032%=      5-min Rain = 0
KSC1 171808Z 21005KT 25/07 A3002 RMK A01 T02500070  RH  032%=      5-min Rain = 0
KSC1 171809Z 17006KT 25/07 A3002 RMK A01 T02500069  RH  031%=      5-min Rain = 0
KSC1 171810Z 15007KT 25/07 A3002 RMK A01 T02500072  RH  032%=      5-min Rain = 0
KSC1 171811Z 15006KT 25/07 A3002 RMK A01 T02490071  RH  032%=      5-min Rain = 0
KSC1 171812Z 16004KT 25/07 A3002 RMK A01 T02460068  RH  032%=      5-min Rain = 0
KSC1 171813Z 13001KT 24/07 A3001 RMK A01 T02440068  RH  032%=      5-min Rain = 0
KSC1 171814Z 13005KT 24/07 A3001 RMK A01 T02420068  RH  033%=      5-min Rain = 0
KSC1 171815Z 12006KT 24/07 A3001 RMK A01 T02430066  RH  032%=      5-min Rain = 0
KSC1 171816Z 15005KT 25/07 A3001 RMK A01 T02470066  RH  031%=      5-min Rain = 0
KSC1 171817Z 19005KT 25/07 A3001 RMK A01 T02490068  RH  031%=      5-min Rain = 0
KSC1 171818Z 16004KT 25/07 A3001 RMK A01 T02510072  RH  032%=      5-min Rain = 0
KSC1 171819Z 18007KT 25/07 A3001 RMK A01 T02530073  RH  032%=      5-min Rain = 0
KSC1 171820Z 21007KT 25/08 A3001 RMK A01 T02530075  RH  032%=      5-min Rain = 0
KSC1 171821Z 22006KT 25/08 A3001 RMK A01 T02510075  RH  033%=      5-min Rain = 0
KSC1 171822Z 21004KT 25/08 A30 RMK A01 T02490079  RH  034%=      5-min Rain = 0
KSC1 171823Z 22005KT 25/08 A30 RMK A01 T02480081  RH  035%=      5-min Rain = 0
KSC1 171824Z 21004KT 25/08 A30 RMK A01 T02480081  RH  035%=      5-min Rain = 0
KSC1 171825Z 15005KT 25/08 A30 RMK A01 T02500080  RH  034%=      5-min Rain = 0
KSC1 171826Z 13005KT 25/08 A30 RMK A01 T02530082  RH  034%=      5-min Rain = 0
KSC1 171827Z 15003KT 26/08 A30 RMK A01 T02550083  RH  033%=      5-min Rain = 0
KSC1 171828Z 17004KT 25/08 A30 RMK A01 T02540082  RH  033%=      5-min Rain = 0
KSC1 171829Z 14008KT 25/08 A30 RMK A01 T02540083  RH  034%=      5-min Rain = 0
KSC1 171830Z 13009KT 25/08 A30 RMK A01 T02530082  RH  034%=      5-min Rain = 0
KSC1 171831Z 16009KT 25/08 A30 RMK A01 T02530079  RH  033%=      5-min Rain = 0
KSC1 171832Z 16006KT 25/08 A30 RMK A01 T02530076  RH  032%=      5-min Rain = 0
KSC1 171833Z 16006KT 25/08 A30 RMK A01 T02500078  RH  034%=      5-min Rain = 0
KSC1 171834Z 11003KT 25/08 A30 RMK A01 T02470080  RH  034%=      5-min Rain = 0
KSC1 171835Z 17005KT 25/08 A30 RMK A01 T02460080  RH  035%=      5-min Rain = 0
KSC1 171836Z 18005KT 25/08 A30 RMK A01 T02490083  RH  035%=      5-min Rain = 0
KSC1 171837Z 22004KT 25/09 A30 RMK A01 T02520085  RH  035%=      5-min Rain = 0
KSC1 171838Z 17007KT 26/08 A30 RMK A01 T02560084  RH  034%=      5-min Rain = 0
KSC1 171839Z 16008KT 26/08 A30 RMK A01 T02560082  RH  033%=      5-min Rain = 0
KSC1 171840Z 15005KT 25/08 A30 RMK A01 T02540080  RH  033%=      5-min Rain = 0
KSC1 171841Z 18003KT 25/08 A2999 RMK A01 T02520079  RH  033%=      5-min Rain = 0
KSC1 171842Z 19006KT 25/08 A2999 RMK A01 T02520079  RH  033%=      5-min Rain = 0
KSC1 171843Z 21005KT 26/08 A2999 RMK A01 T02560083  RH  033%=      5-min Rain = 0
KSC1 171844Z 16005KT 26/08 A2999 RMK A01 T02570079  RH  032%=      5-min Rain = 0
KSC1 171845Z 17004KT 26/08 A2999 RMK A01 T02560079  RH  032%=      5-min Rain = 0
KSC1 171846Z 21007KT 26/08 A2999 RMK A01 T02580079  RH  032%=      5-min Rain = 0
KSC1 171847Z 22008KT 26/08 A2999 RMK A01 T02590080  RH  032%=      5-min Rain = 0
KSC1 171848Z 21007KT 26/08 A2999 RMK A01 T02590079  RH  032%=      5-min Rain = 0
KSC1 171849Z 16005KT 26/08 A2999 RMK A01 T02590076  RH  031%=      5-min Rain = 0
KSC1 171850Z 17003KT 26/08 A2999 RMK A01 T02630077  RH  031%=      5-min Rain = 0
KSC1 171851Z 16004KT 27/07 A2999 RMK A01 T02650074  RH  030%=      5-min Rain = 0
KSC1 171852Z 19004KT 27/07 A2999 RMK A01 T02650074  RH  030%=      5-min Rain = 0
KSC1 171853Z 22007KT 27/07 A2999 RMK A01 T02650074  RH  030%=      5-min Rain = 0
KSC1 171854Z 17005KT 26/07 A2999 RMK A01 T02640074  RH  030%=      5-min Rain = 0
KSC1 171855Z 16007KT 26/07 A2999 RMK A01 T02640073  RH  030%=      5-min Rain = 0
KSC1 171856Z 15008KT 27/07 A2999 RMK A01 T02650072  RH  029%=      5-min Rain = 0
KSC1 171857Z 15006KT 26/07 A2999 RMK A01 T02640071  RH  029%=      5-min Rain = 0
KSC1 171858Z 17003KT 26/07 A2999 RMK A01 T02620070  RH  029%=      5-min Rain = 0
KSC1 171859Z 17004KT 26/07 A2999 RMK A01 T02620071  RH  030%=      5-min Rain = 0
KSC1 171900Z 18006KT 26/07 A2998 RMK A01 T02620071  RH  030%=      5-min Rain = 0
KSC1 171901Z 16004KT 26/07 A2998 RMK A01 T02610071  RH  030%=      5-min Rain = 0
KSC1 171902Z 19002KT 26/07 A2998 RMK A01 T02610071  RH  030%=      5-min Rain = 0
KSC1 171903Z 21002KT 26/07 A2998 RMK A01 T02620073  RH  030%=      5-min Rain = 0
KSC1 171904Z 15005KT 26/07 A2998 RMK A01 T02630074  RH  030%=      5-min Rain = 0
KSC1 171905Z 17006KT 26/07 A2998 RMK A01 T02640074  RH  030%=      5-min Rain = 0
KSC1 171906Z 16006KT 27/08 A2998 RMK A01 T02650075  RH  030%=      5-min Rain = 0
KSC1 171907Z 14006KT 27/08 A2998 RMK A01 T02660077  RH  030%=      5-min Rain = 0
KSC1 171908Z 11004KT 27/08 A2998 RMK A01 T02650075  RH  030%=      5-min Rain = 0
KSC1 171909Z 13004KT 26/08 A2998 RMK A01 T02630075  RH  030%=      5-min Rain = 0
KSC1 171910Z 17007KT 26/08 A2998 RMK A01 T02620077  RH  031%=      5-min Rain = 0
KSC1 171911Z 17005KT 26/08 A2998 RMK A01 T02630076  RH  030%=      5-min Rain = 0
KSC1 171912Z 17004KT 26/08 A2998 RMK A01 T02630076  RH  030%=      5-min Rain = 0
KSC1 171913Z 15005KT 26/08 A2997 RMK A01 T02640076  RH  030%=      5-min Rain = 0
KSC1 171914Z 12004KT 27/08 A2997 RMK A01 T02650076  RH  030%=      5-min Rain = 0
KSC1 171915Z 14005KT 27/08 A2997 RMK A01 T02650076  RH  030%=      5-min Rain = 0
KSC1 171916Z 15008KT 27/08 A2997 RMK A01 T02650077  RH  030%=      5-min Rain = 0
KSC1 171917Z 13004KT 26/08 A2997 RMK A01 T02640077  RH  031%=      5-min Rain = 0
KSC1 171918Z 15004KT 26/08 A2997 RMK A01 T02640078  RH  031%=      5-min Rain = 0
KSC1 171919Z 17006KT 27/08 A2997 RMK A01 T02650079  RH  031%=      5-min Rain = 0
KSC1 171920Z 14006KT 27/08 A2997 RMK A01 T02660078  RH  030%=      5-min Rain = 0
KSC1 171921Z 17006KT 26/08 A2997 RMK A01 T02630078  RH  031%=      5-min Rain = 0
KSC1 171922Z 19006KT 26/08 A2997 RMK A01 T02630080  RH  031%=      5-min Rain = 0
KSC1 171923Z 15003KT 26/08 A2997 RMK A01 T02640081  RH  031%=      5-min Rain = 0
KSC1 171924Z 13006KT 26/08 A2997 RMK A01 T02640081  RH  031%=      5-min Rain = 0
KSC1 171925Z 12008KT 27/08 A2997 RMK A01 T02650081  RH  031%=      5-min Rain = 0
KSC1 171926Z 15005KT 26/08 A2997 RMK A01 T02640082  RH  032%=      5-min Rain = 0
KSC1 171927Z 17006KT 27/09 A2996 RMK A01 T02670085  RH  032%=      5-min Rain = 0
KSC1 171928Z 17008KT 27/09 A2996 RMK A01 T02710085  RH  031%=      5-min Rain = 0
KSC1 171929Z 15005KT 27/09 A2996 RMK A01 T02710085  RH  031%=      5-min Rain = 0
KSC1 171930Z 17008KT 27/08 A2996 RMK A01 T02690083  RH  031%=      5-min Rain = 0
KSC1 171931Z 14007KT 27/08 A2996 RMK A01 T02670083  RH  031%=      5-min Rain = 0
KSC1 171932Z 14006KT 27/08 A2996 RMK A01 T02670083  RH  031%=      5-min Rain = 0
KSC1 171933Z 11003KT 27/08 A2996 RMK A01 T02660083  RH  031%=      5-min Rain = 0
KSC1 171934Z 12006KT 26/08 A2996 RMK A01 T02640083  RH  032%=      5-min Rain = 0
KSC1 171935Z 15006KT 26/08 A2996 RMK A01 T02630083  RH  032%=      5-min Rain = 0
KSC1 171936Z 14007KT 26/08 A2996 RMK A01 T02640083  RH  032%=      5-min Rain = 0
KSC1 171937Z 12006KT 26/08 A2996 RMK A01 T02640081  RH  031%=      5-min Rain = 0
KSC1 171938Z 13007KT 26/08 A2996 RMK A01 T02620081  RH  032%=      5-min Rain = 0
KSC1 171939Z 18009KT 26/08 A2996 RMK A01 T02620082  RH  032%=      5-min Rain = 0
KSC1 171940Z 19007KT 26/08 A2996 RMK A01 T02640083  RH  032%=      5-min Rain = 0
KSC1 171941Z 19005G10KT 27/08 A2995 RMK A01 T02660083  RH  031%=      5-min Rain = 0
KSC1 171942Z 16009KT 27/08 A2995 RMK A01 T02660084  RH  032%=      5-min Rain = 0
KSC1 171943Z 16008KT 27/08 A2995 RMK A01 T02660083  RH  031%=      5-min Rain = 0
KSC1 171944Z 17007KT 27/08 A2995 RMK A01 T02650083  RH  032%=      5-min Rain = 0
KSC1 171945Z 16006KT 27/08 A2995 RMK A01 T02650083  RH  032%=      5-min Rain = 0
KSC1 171946Z 17005KT 27/08 A2995 RMK A01 T02660083  RH  031%=      5-min Rain = 0
KSC1 171947Z 17003KT 27/08 A2995 RMK A01 T02660082  RH  031%=      5-min Rain = 0
KSC1 171948Z 15008KT 27/08 A2995 RMK A01 T02660082  RH  031%=      5-min Rain = 0
KSC1 171949Z 16010KT 27/08 A2995 RMK A01 T02670082  RH  031%=      5-min Rain = 0
KSC1 171950Z 17006KT 27/08 A2995 RMK A01 T02670082  RH  031%=      5-min Rain = 0
KSC1 171951Z 15006KT 27/08 A2995 RMK A01 T02670082  RH  031%=      5-min Rain = 0
KSC1 171952Z 14005KT 27/08 A2995 RMK A01 T02690082  RH  031%=      5-min Rain = 0
KSC1 171953Z 13007KT 27/08 A2995 RMK A01 T02730084  RH  030%=      5-min Rain = 0
KSC1 171954Z 12006KT 27/08 A2995 RMK A01 T02740084  RH  030%=      5-min Rain = 0
KSC1 171955Z 12006KT 27/08 A2995 RMK A01 T02730083  RH  030%=      5-min Rain = 0
KSC1 171956Z 10006KT 27/08 A2995 RMK A01 T02720083  RH  030%=      5-min Rain = 0
KSC1 171957Z 12006KT 27/08 A2995 RMK A01 T02700081  RH  030%=      5-min Rain = 0
KSC1 171958Z 18006KT 27/08 A2995 RMK A01 T02670081  RH  031%=      5-min Rain = 0
KSC1 171959Z 17006KT 27/08 A2995 RMK A01 T02670081  RH  031%=      5-min Rain = 0
KSC1 172000Z 16007KT 27/08 A2995 RMK A01 T02680080  RH  031%=      5-min Rain = 0
KSC1 172001Z 16006KT 27/08 A2995 RMK A01 T02680080  RH  030%=      5-min Rain = 0
KSC1 172002Z 16009KT 27/08 A2995 RMK A01 T02680080  RH  030%=      5-min Rain = 0
KSC1 172003Z 16005KT 27/08 A2994 RMK A01 T02680079  RH  030%=      5-min Rain = 0
KSC1 172004Z 17006KT 27/08 A2994 RMK A01 T02670080  RH  031%=      5-min Rain = 0
KSC1 172005Z 19006KT 27/08 A2994 RMK A01 T02690080  RH  030%=      5-min Rain = 0
KSC1 172006Z 18007KT 27/08 A2994 RMK A01 T02700080  RH  030%=      5-min Rain = 0
KSC1 172007Z 19007KT 27/08 A2994 RMK A01 T02710079  RH  030%=      5-min Rain = 0
KSC1 172008Z 18008KT 27/08 A2994 RMK A01 T02720079  RH  030%=      5-min Rain = 0
KSC1 172009Z 19007KT 27/08 A2994 RMK A01 T02720077  RH  029%=      5-min Rain = 0
KSC1 172010Z 20006KT 27/08 A2994 RMK A01 T02700077  RH  029%=      5-min Rain = 0
KSC1 172011Z 19006KT 27/08 A2994 RMK A01 T02690077  RH  030%=      5-min Rain = 0
KSC1 172012Z 19006KT 27/08 A2994 RMK A01 T02690077  RH  030%=      5-min Rain = 0
KSC1 172013Z 19005KT 27/08 A2994 RMK A01 T02700076  RH  029%=      5-min Rain = 0
KSC1 172014Z 14007KT 27/08 A2994 RMK A01 T02680076  RH  030%=      5-min Rain = 0
KSC1 172015Z 14009KT 27/08 A2994 RMK A01 T02680076  RH  030%=      5-min Rain = 0
KSC1 172016Z 14006KT 27/08 A2994 RMK A01 T02680077  RH  030%=      5-min Rain = 0
KSC1 172017Z 13006KT 27/08 A2994 RMK A01 T02690077  RH  030%=      5-min Rain = 0
KSC1 172018Z 13009KT 27/08 A2994 RMK A01 T02720078  RH  029%=      5-min Rain = 0
KSC1 172019Z 14007KT 27/08 A2994 RMK A01 T02720076  RH  029%=      5-min Rain = 0
KSC1 172020Z 15007KT 27/08 A2994 RMK A01 T02710076  RH  029%=      5-min Rain = 0
KSC1 172021Z 14009G14KT 27/08 A2994 RMK A01 T02710076  RH  029%=      5-min Rain = 0
KSC1 172022Z 16009KT 27/08 A2994 RMK A01 T02710076  RH  029%=      5-min Rain = 0
KSC1 172023Z 18008KT 27/08 A2994 RMK A01 T02720076  RH  029%=      5-min Rain = 0
KSC1 172024Z 21007KT 27/08 A2994 RMK A01 T02720077  RH  029%=      5-min Rain = 0
KSC1 172025Z 20005KT 27/08 A2994 RMK A01 T02720076  RH  029%=      5-min Rain = 0
KSC1 172026Z 19004KT 27/08 A2994 RMK A01 T02710075  RH  029%=      5-min Rain = 0
KSC1 172027Z 17002KT 27/08 A2994 RMK A01 T02700076  RH  029%=      5-min Rain = 0
KSC1 172028Z 16006KT 27/08 A2994 RMK A01 T02720075  RH  029%=      5-min Rain = 0
KSC1 172029Z 18007KT 27/07 A2993 RMK A01 T02730073  RH  028%=      5-min Rain = 0
KSC1 172030Z 14006KT 27/07 A2994 RMK A01 T02740074  RH  028%=      5-min Rain = 0
KSC1 172031Z 13005KT 28/07 A2994 RMK A01 T02750073  RH  028%=      5-min Rain = 0
KSC1 172032Z 15005KT 27/07 A2994 RMK A01 T02730072  RH  028%=      5-min Rain = 0
KSC1 172033Z 15004KT 27/07 A2993 RMK A01 T02720072  RH  028%=      5-min Rain = 0
KSC1 172034Z 15005KT 27/07 A2993 RMK A01 T02730073  RH  028%=      5-min Rain = 0
KSC1 172035Z 14008KT 27/07 A2993 RMK A01 T02740073  RH  028%=      5-min Rain = 0
KSC1 172036Z 13005KT 27/07 A2993 RMK A01 T02730073  RH  028%=      5-min Rain = 0
KSC1 172037Z 13006KT 27/07 A2993 RMK A01 T02720073  RH  028%=      5-min Rain = 0
KSC1 172038Z 12004KT 27/07 A2993 RMK A01 T02730074  RH  028%=      5-min Rain = 0
KSC1 172039Z 11006KT 27/07 A2993 RMK A01 T02740073  RH  028%=      5-min Rain = 0
KSC1 172040Z 13007KT 27/07 A2993 RMK A01 T02740074  RH  028%=      5-min Rain = 0
KSC1 172041Z 14007KT 27/07 A2993 RMK A01 T02740074  RH  028%=      5-min Rain = 0
KSC1 172042Z 13006KT 28/07 A2993 RMK A01 T02750074  RH  028%=      5-min Rain = 0
KSC1 172043Z 13006KT 28/07 A2993 RMK A01 T02750074  RH  028%=      5-min Rain = 0
KSC1 172044Z 15009KT 28/08 A2993 RMK A01 T02750075  RH  028%=      5-min Rain = 0
KSC1 172045Z 16011KT 28/08 A2993 RMK A01 T02780076  RH  028%=      5-min Rain = 0
KSC1 172046Z 15010KT 28/08 A2993 RMK A01 T02780075  RH  028%=      5-min Rain = 0
KSC1 172047Z 14007KT 28/08 A2993 RMK A01 T02770075  RH  028%=      5-min Rain = 0
KSC1 172048Z 15005KT 28/08 A2993 RMK A01 T02770075  RH  028%=      5-min Rain = 0
KSC1 172049Z 12003KT 28/08 A2993 RMK A01 T02760075  RH  028%=      5-min Rain = 0
KSC1 172050Z 10005KT 28/07 A2993 RMK A01 T02760074  RH  028%=      5-min Rain = 0
KSC1 172051Z 09005KT 27/07 A2993 RMK A01 T02740074  RH  028%=      5-min Rain = 0
KSC1 172052Z 07004KT 27/07 A2993 RMK A01 T02710074  RH  029%=      5-min Rain = 0
KSC1 172053Z 12008KT 27/08 A2992 RMK A01 T02710076  RH  029%=      5-min Rain = 0
KSC1 172054Z 17007G12KT 27/08 A2993 RMK A01 T02730078  RH  029%=      5-min Rain = 0
KSC1 172055Z 20005KT 27/08 A2992 RMK A01 T02730078  RH  029%=      5-min Rain = 0
KSC1 172056Z 20004KT 27/08 A2992 RMK A01 T02740079  RH  029%=      5-min Rain = 0
KSC1 172057Z 18005KT 27/08 A2992 RMK A01 T02740079  RH  029%=      5-min Rain = 0
KSC1 172058Z 12005KT 28/08 A2992 RMK A01 T02760080  RH  029%=      5-min Rain = 0
KSC1 172059Z 11003KT 28/08 A2992 RMK A01 T02770079  RH  029%=      5-min Rain = 0
KSC1 172100Z 11006KT 28/08 A2992 RMK A01 T02770078  RH  029%=      5-min Rain = 0
KSC1 172101Z 12011KT 28/08 A2992 RMK A01 T02760077  RH  029%=      5-min Rain = 0
KSC1 172102Z 14011KT 28/08 A2992 RMK A01 T02750078  RH  029%=      5-min Rain = 0
KSC1 172103Z 15010KT 28/08 A2992 RMK A01 T02760079  RH  029%=      5-min Rain = 0
KSC1 172104Z 14006KT 28/08 A2992 RMK A01 T02760078  RH  029%=      5-min Rain = 0
KSC1 172105Z 14009KT 28/08 A2992 RMK A01 T02770080  RH  029%=      5-min Rain = 0
KSC1 172106Z 13010KT 28/08 A2992 RMK A01 T02780079  RH  028%=      5-min Rain = 0
KSC1 172107Z 13009KT 28/08 A2992 RMK A01 T02780078  RH  028%=      5-min Rain = 0
KSC1 172108Z 13007KT 28/08 A2992 RMK A01 T02760078  RH  029%=      5-min Rain = 0
KSC1 172109Z 12006KT 28/08 A2992 RMK A01 T02750079  RH  029%=      5-min Rain = 0
KSC1 172110Z 11006KT 28/08 A2992 RMK A01 T02760078  RH  029%=      5-min Rain = 0
KSC1 172111Z 14007KT 28/08 A2992 RMK A01 T02750079  RH  029%=      5-min Rain = 0
KSC1 172112Z 16006KT 28/08 A2992 RMK A01 T02750078  RH  029%=      5-min Rain = 0
KSC1 172113Z 12006KT 27/08 A2992 RMK A01 T02740078  RH  029%=      5-min Rain = 0
KSC1 172114Z 13005KT 27/08 A2992 RMK A01 T02740079  RH  029%=      5-min Rain = 0
KSC1 172115Z 16005KT 27/08 A2991 RMK A01 T02740079  RH  029%=      5-min Rain = 0
KSC1 172116Z 09003KT 27/08 A2991 RMK A01 T02740079  RH  029%=      5-min Rain = 0
KSC1 172117Z 13003KT 28/08 A2991 RMK A01 T02760081  RH  029%=      5-min Rain = 0
KSC1 172118Z 14002KT 28/08 A2991 RMK A01 T02770080  RH  029%=      5-min Rain = 0
KSC1 172119Z 08002KT 28/08 A2991 RMK A01 T02770079  RH  029%=      5-min Rain = 0
KSC1 172120Z 13002KT 28/08 A2991 RMK A01 T02770080  RH  029%=      5-min Rain = 0
KSC1 172121Z 15002KT 28/08 A2991 RMK A01 T02750079  RH  029%=      5-min Rain = 0
KSC1 172122Z 13004KT 27/08 A2991 RMK A01 T02740079  RH  029%=      5-min Rain = 0
KSC1 172123Z 13004KT 27/08 A2991 RMK A01 T02740080  RH  029%=      5-min Rain = 0
KSC1 172124Z 15006KT 28/08 A2991 RMK A01 T02770083  RH  029%=      5-min Rain = 0
KSC1 172125Z 16005KT 28/09 A2991 RMK A01 T02810085  RH  029%=      5-min Rain = 0
KSC1 172126Z 18009KT 28/09 A2991 RMK A01 T02820086  RH  029%=      5-min Rain = 0
KSC1 172127Z 19008KT 28/09 A2991 RMK A01 T02820086  RH  029%=      5-min Rain = 0
KSC1 172128Z 19007KT 28/09 A2991 RMK A01 T02800085  RH  029%=      5-min Rain = 0
KSC1 172129Z 18005KT 28/08 A2991 RMK A01 T02780084  RH  030%=      5-min Rain = 0
KSC1 172130Z 13003KT 28/09 A2991 RMK A01 T02760085  RH  030%=      5-min Rain = 0
KSC1 172131Z 12006KT 28/09 A2991 RMK A01 T02780085  RH  030%=      5-min Rain = 0
KSC1 172132Z 14005KT 28/09 A2991 RMK A01 T02790085  RH  029%=      5-min Rain = 0
KSC1 172133Z 14005KT 28/09 A2991 RMK A01 T02810085  RH  029%=      5-min Rain = 0
KSC1 172134Z 12007KT 28/09 A2991 RMK A01 T02810085  RH  029%=      5-min Rain = 0
KSC1 172135Z 14008KT 28/08 A2991 RMK A01 T02800084  RH  029%=      5-min Rain = 0
KSC1 172136Z 16008KT 28/09 A2991 RMK A01 T02790085  RH  029%=      5-min Rain = 0
KSC1 172137Z 15010KT 28/09 A2991 RMK A01 T02790086  RH  030%=      5-min Rain = 0
KSC1 172138Z 16008KT 28/09 A2991 RMK A01 T02770086  RH  030%=      5-min Rain = 0
KSC1 172139Z 15010KT 28/09 A2991 RMK A01 T02770087  RH  030%=      5-min Rain = 0
KSC1 172140Z 15011KT 28/09 A2991 RMK A01 T02780086  RH  030%=      5-min Rain = 0
KSC1 172141Z 15010KT 28/09 A2991 RMK A01 T02780086  RH  030%=      5-min Rain = 0
KSC1 172142Z 17010KT 28/09 A2991 RMK A01 T02780087  RH  030%=      5-min Rain = 0
KSC1 172143Z 18009KT 28/09 A2991 RMK A01 T02780087  RH  030%=      5-min Rain = 0
KSC1 172144Z 19008KT 28/09 A2991 RMK A01 T02760086  RH  030%=      5-min Rain = 0
KSC1 172145Z 19006KT 28/09 A299 RMK A01 T02760086  RH  030%=      5-min Rain = 0
KSC1 172146Z 19004KT 28/09 A299 RMK A01 T02760086  RH  030%=      5-min Rain = 0
KSC1 172147Z 19004KT 28/09 A299 RMK A01 T02760085  RH  030%=      5-min Rain = 0
KSC1 172148Z 14004KT 28/08 A299 RMK A01 T02750084  RH  030%=      5-min Rain = 0
KSC1 172149Z 14006KT 28/08 A299 RMK A01 T02750084  RH  030%=      5-min Rain = 0
KSC1 172150Z 13004KT 28/08 A299 RMK A01 T02750084  RH  030%=      5-min Rain = 0
KSC1 172151Z 12004KT 28/08 A299 RMK A01 T02760084  RH  030%=      5-min Rain = 0
KSC1 172152Z 13008KT 28/08 A299 RMK A01 T02780084  RH  030%=      5-min Rain = 0
KSC1 172153Z 15010KT 28/08 A299 RMK A01 T02780084  RH  029%=      5-min Rain = 0
KSC1 172154Z 14012KT 28/08 A299 RMK A01 T02770084  RH  030%=      5-min Rain = 0
KSC1 172155Z 16009KT 28/08 A299 RMK A01 T02770084  RH  030%=      5-min Rain = 0
KSC1 172156Z 16010KT 28/08 A299 RMK A01 T02770083  RH  030%=      5-min Rain = 0
KSC1 172157Z 16009KT 28/08 A299 RMK A01 T02770083  RH  029%=      5-min Rain = 0
KSC1 172158Z 14007KT 28/08 A299 RMK A01 T02760082  RH  030%=      5-min Rain = 0
KSC1 172159Z 15005KT 28/08 A299 RMK A01 T02750082  RH  030%=      5-min Rain = 0
KSC1 172200Z 19006KT 27/08 A299 RMK A01 T02740083  RH  030%=      5-min Rain = 0
KSC1 172201Z 16004KT 27/08 A299 RMK A01 T02740083  RH  030%=      5-min Rain = 0
KSC1 172202Z 15003KT 27/08 A299 RMK A01 T02740083  RH  030%=      5-min Rain = 0
KSC1 172203Z 16006KT 28/08 A299 RMK A01 T02750083  RH  030%=      5-min Rain = 0
KSC1 172204Z 15003KT 28/08 A299 RMK A01 T02760083  RH  030%=      5-min Rain = 0
KSC1 172205Z 14004KT 28/08 A299 RMK A01 T02760084  RH  030%=      5-min Rain = 0
KSC1 172206Z 13006KT 28/08 A299 RMK A01 T02750082  RH  030%=      5-min Rain = 0
KSC1 172207Z 18005KT 28/08 A299 RMK A01 T02760082  RH  029%=      5-min Rain = 0
KSC1 172208Z 22002KT 28/08 A299 RMK A01 T02760081  RH  029%=      5-min Rain = 0
KSC1 172209Z 16003KT 28/08 A299 RMK A01 T02750081  RH  029%=      5-min Rain = 0
KSC1 172210Z 16003KT 28/08 A299 RMK A01 T02750082  RH  029%=      5-min Rain = 0
KSC1 172211Z 15004KT 28/08 A299 RMK A01 T02760082  RH  029%=      5-min Rain = 0
KSC1 172212Z 18002KT 28/08 A299 RMK A01 T02770082  RH  029%=      5-min Rain = 0
KSC1 172213Z 18007KT 28/08 A299 RMK A01 T02780082  RH  029%=      5-min Rain = 0
KSC1 172214Z 16009KT 28/08 A299 RMK A01 T02780083  RH  029%=      5-min Rain = 0
KSC1 172215Z 18007KT 28/08 A299 RMK A01 T02780084  RH  030%=      5-min Rain = 0
KSC1 172216Z 16009KT 28/09 A299 RMK A01 T02780085  RH  030%=      5-min Rain = 0
KSC1 172217Z 16008KT 28/08 A299 RMK A01 T02780084  RH  029%=      5-min Rain = 0
KSC1 172218Z 19006KT 28/08 A299 RMK A01 T02780084  RH  030%=      5-min Rain = 0
KSC1 172219Z 18005KT 28/08 A299 RMK A01 T02780084  RH  029%=      5-min Rain = 0
KSC1 172220Z 17007KT 28/08 A2989 RMK A01 T02780084  RH  029%=      5-min Rain = 0
KSC1 172221Z 15007KT 28/08 A2989 RMK A01 T02780083  RH  029%=      5-min Rain = 0
KSC1 172222Z 13007KT 28/08 A2989 RMK A01 T02770082  RH  029%=      5-min Rain = 0
KSC1 172223Z 13007KT 28/08 A2989 RMK A01 T02770082  RH  029%=      5-min Rain = 0
KSC1 172224Z 14008KT 28/08 A2989 RMK A01 T02770081  RH  029%=      5-min Rain = 0
KSC1 172225Z 15007KT 28/08 A2989 RMK A01 T02770081  RH  029%=      5-min Rain = 0
KSC1 172226Z 15009KT 28/08 A2989 RMK A01 T02750081  RH  029%=      5-min Rain = 0
KSC1 172227Z 17009KT 28/08 A2989 RMK A01 T02750082  RH  030%=      5-min Rain = 0
KSC1 172228Z 18006KT 28/08 A2989 RMK A01 T02750082  RH  030%=      5-min Rain = 0
KSC1 172229Z 18005KT 27/08 A2989 RMK A01 T02740083  RH  030%=      5-min Rain = 0
KSC1 172230Z 19004KT 27/08 A2989 RMK A01 T02740083  RH  030%=      5-min Rain = 0
KSC1 172231Z 18005KT 28/08 A2989 RMK A01 T02750083  RH  030%=      5-min Rain = 0
KSC1 172232Z 16005KT 28/08 A2989 RMK A01 T02770084  RH  030%=      5-min Rain = 0
KSC1 172233Z 15005KT 28/08 A2989 RMK A01 T02780083  RH  029%=      5-min Rain = 0
KSC1 172234Z 14006KT 28/08 A2989 RMK A01 T02780082  RH  029%=      5-min Rain = 0
KSC1 172235Z 14006KT 28/08 A2989 RMK A01 T02770082  RH  029%=      5-min Rain = 0
KSC1 172236Z 16006KT 28/08 A2989 RMK A01 T02770082  RH  029%=      5-min Rain = 0
KSC1 172237Z 16006KT 28/08 A2989 RMK A01 T02760082  RH  029%=      5-min Rain = 0
KSC1 172238Z 15006KT 28/08 A2989 RMK A01 T02760082  RH  029%=      5-min Rain = 0
KSC1 172239Z 15009KT 28/08 A2989 RMK A01 T02750082  RH  030%=      5-min Rain = 0
KSC1 172240Z 16009KT 28/08 A2989 RMK A01 T02750082  RH  030%=      5-min Rain = 0
KSC1 172241Z 16007KT 27/08 A2989 RMK A01 T02740082  RH  030%=      5-min Rain = 0
KSC1 172242Z 17007KT 27/08 A2989 RMK A01 T02740083  RH  030%=      5-min Rain = 0
KSC1 172243Z 16008KT 27/08 A2989 RMK A01 T02740082  RH  030%=      5-min Rain = 0
KSC1 172244Z 17006KT 27/08 A2989 RMK A01 T02740082  RH  030%=      5-min Rain = 0
KSC1 172245Z 16004KT 27/08 A2989 RMK A01 T02730082  RH  030%=      5-min Rain = 0
KSC1 172246Z 15004KT 27/08 A2989 RMK A01 T02720082  RH  030%=      5-min Rain = 0
KSC1 172247Z 16004KT 27/08 A2989 RMK A01 T02730083  RH  030%=      5-min Rain = 0
KSC1 172248Z 17007KT 27/08 A2989 RMK A01 T02730083  RH  030%=      5-min Rain = 0
KSC1 172249Z 16006KT 27/08 A2989 RMK A01 T02730083  RH  030%=      5-min Rain = 0
KSC1 172250Z 13006KT 27/08 A2989 RMK A01 T02740084  RH  030%=      5-min Rain = 0
KSC1 172251Z 14008KT 27/08 A2989 RMK A01 T02740084  RH  030%=      5-min Rain = 0
KSC1 172252Z 16006KT 27/09 A2989 RMK A01 T02740085  RH  030%=      5-min Rain = 0
KSC1 172253Z 16005KT 27/08 A2989 RMK A01 T02740084  RH  030%=      5-min Rain = 0
KSC1 172254Z 18006KT 27/08 A2989 RMK A01 T02740084  RH  030%=      5-min Rain = 0
KSC1 172255Z 18006KT 27/08 A2989 RMK A01 T02730084  RH  030%=      5-min Rain = 0
KSC1 172256Z 14006KT 27/08 A2989 RMK A01 T02720084  RH  031%=      5-min Rain = 0
KSC1 172257Z 13004KT 27/09 A2989 RMK A01 T02720085  RH  031%=      5-min Rain = 0
KSC1 172258Z 15008KT 27/09 A2989 RMK A01 T02720085  RH  031%=      5-min Rain = 0
KSC1 172259Z 14007KT 27/09 A2989 RMK A01 T02720086  RH  031%=      5-min Rain = 0
KSC1 172300Z 14008KT 27/09 A2989 RMK A01 T02720086  RH  031%=      5-min Rain = 0
KSC1 172301Z 14005KT 27/09 A2989 RMK A01 T02720087  RH  031%=      5-min Rain = 0
KSC1 172302Z 14005KT 27/09 A2989 RMK A01 T02710087  RH  031%=      5-min Rain = 0
KSC1 172303Z 13004KT 27/09 A2989 RMK A01 T02710087  RH  031%=      5-min Rain = 0
KSC1 172304Z 15005KT 27/09 A2989 RMK A01 T02720088  RH  031%=      5-min Rain = 0
KSC1 172305Z 15006KT 27/09 A2989 RMK A01 T02720087  RH  031%=      5-min Rain = 0
KSC1 172306Z 15008KT 27/09 A2989 RMK A01 T02720087  RH  031%=      5-min Rain = 0
KSC1 172307Z 15007KT 27/09 A2989 RMK A01 T02730088  RH  031%=      5-min Rain = 0
KSC1 172308Z 13007KT 27/09 A2989 RMK A01 T02720087  RH  031%=      5-min Rain = 0
KSC1 172309Z 14008KT 27/09 A2989 RMK A01 T02710087  RH  031%=      5-min Rain = 0
KSC1 172310Z 11006KT 27/09 A2989 RMK A01 T02710087  RH  031%=      5-min Rain = 0
KSC1 172311Z 11008KT 27/09 A2989 RMK A01 T02700087  RH  032%=      5-min Rain = 0
KSC1 172312Z 13009G14KT 27/09 A2989 RMK A01 T02690088  RH  032%=      5-min Rain = 0
KSC1 172313Z 13010KT 27/09 A2989 RMK A01 T02680088  RH  032%=      5-min Rain = 0
KSC1 172314Z 14009KT 27/09 A2989 RMK A01 T02670088  RH  032%=      5-min Rain = 0
KSC1 172315Z 14009KT 27/09 A2989 RMK A01 T02670088  RH  032%=      5-min Rain = 0
KSC1 172316Z 14008KT 27/09 A2989 RMK A01 T02660088  RH  033%=      5-min Rain = 0
KSC1 172317Z 14010KT 27/09 A2989 RMK A01 T02660089  RH  033%=      5-min Rain = 0
KSC1 172318Z 13010KT 27/09 A2989 RMK A01 T02650089  RH  033%=      5-min Rain = 0
KSC1 172319Z 12011KT 27/09 A2989 RMK A01 T02650089  RH  033%=      5-min Rain = 0
KSC1 172320Z 12010KT 26/09 A2989 RMK A01 T02640089  RH  033%=      5-min Rain = 0
KSC1 172321Z 12010KT 26/09 A2989 RMK A01 T02630090  RH  033%=      5-min Rain = 0
KSC1 172322Z 12009KT 26/09 A2989 RMK A01 T02630090  RH  034%=      5-min Rain = 0
KSC1 172323Z 12007KT 26/09 A2989 RMK A01 T02620090  RH  034%=      5-min Rain = 0
KSC1 172324Z 13006KT 26/09 A2989 RMK A01 T02620091  RH  034%=      5-min Rain = 0
KSC1 172325Z 12008KT 26/09 A2989 RMK A01 T02620091  RH  034%=      5-min Rain = 0
KSC1 172326Z 12009KT 26/09 A2989 RMK A01 T02620090  RH  034%=      5-min Rain = 0
KSC1 172327Z 13010KT 26/09 A2989 RMK A01 T02610089  RH  034%=      5-min Rain = 0
KSC1 172328Z 13010KT 26/09 A2989 RMK A01 T02610088  RH  034%=      5-min Rain = 0
KSC1 172329Z 12010KT 26/09 A2989 RMK A01 T02600088  RH  033%=      5-min Rain = 0
KSC1 172330Z 12009KT 26/09 A2989 RMK A01 T02590086  RH  033%=      5-min Rain = 0
KSC1 172331Z 13009KT 26/09 A2989 RMK A01 T02590086  RH  033%=      5-min Rain = 0
KSC1 172332Z 12009KT 26/09 A2989 RMK A01 T02580085  RH  033%=      5-min Rain = 0
KSC1 172333Z 12009KT 26/08 A2989 RMK A01 T02570084  RH  033%=      5-min Rain = 0
KSC1 172334Z 12009KT 26/08 A2989 RMK A01 T02560084  RH  034%=      5-min Rain = 0
KSC1 172335Z 12008KT 26/08 A2989 RMK A01 T02560084  RH  034%=      5-min Rain = 0
KSC1 172336Z 11010KT 26/08 A2989 RMK A01 T02550084  RH  034%=      5-min Rain = 0
KSC1 172337Z 12010KT 25/08 A2989 RMK A01 T02540083  RH  034%=      5-min Rain = 0
KSC1 172338Z 12012KT 25/08 A2989 RMK A01 T02530083  RH  034%=      5-min Rain = 0
KSC1 172339Z 11010KT 25/08 A2989 RMK A01 T02520083  RH  034%=      5-min Rain = 0
KSC1 172340Z 11009KT 25/08 A2989 RMK A01 T02520083  RH  034%=      5-min Rain = 0
KSC1 172341Z 12010KT 25/08 A2989 RMK A01 T02510083  RH  034%=      5-min Rain = 0
KSC1 172342Z 12008KT 25/08 A2989 RMK A01 T02510083  RH  034%=      5-min Rain = 0
KSC1 172343Z 12009KT 25/08 A2989 RMK A01 T02500083  RH  035%=      5-min Rain = 0
KSC1 172344Z 12009KT 25/08 A2989 RMK A01 T02500083  RH  035%=      5-min Rain = 0
KSC1 172345Z 11008KT 25/08 A2989 RMK A01 T02490083  RH  035%=      5-min Rain = 0
KSC1 172346Z 12008KT 25/08 A2989 RMK A01 T02490083  RH  035%=      5-min Rain = 0
KSC1 172347Z 11010KT 25/08 A2989 RMK A01 T02480082  RH  035%=      5-min Rain = 0
KSC1 172348Z 12011KT 25/08 A2989 RMK A01 T02470082  RH  035%=      5-min Rain = 0
KSC1 172349Z 12010KT 25/08 A2989 RMK A01 T02470082  RH  035%=      5-min Rain = 0
KSC1 172350Z 12011KT 25/08 A2989 RMK A01 T02470082  RH  035%=      5-min Rain = 0
KSC1 172351Z 12010KT 25/08 A2989 RMK A01 T02460081  RH  035%=      5-min Rain = 0
KSC1 172352Z 12011KT 25/08 A2989 RMK A01 T02460082  RH  035%=      5-min Rain = 0
KSC1 172353Z 12008KT 25/08 A2989 RMK A01 T02460081  RH  035%=      5-min Rain = 0
KSC1 172354Z 12009KT 25/08 A2989 RMK A01 T02450080  RH  035%=      5-min Rain = 0
KSC1 172355Z 11009KT 24/08 A2989 RMK A01 T02440080  RH  035%=      5-min Rain = 0
KSC1 172356Z 11009KT 24/08 A2989 RMK A01 T02430080  RH  035%=      5-min Rain = 0
KSC1 172357Z 11011KT 24/08 A2989 RMK A01 T02430080  RH  035%=      5-min Rain = 0
KSC1 172358Z 11009KT 24/08 A2989 RMK A01 T02430079  RH  035%=      5-min Rain = 0
KSC1 172359Z 12009KT 24/08 A2989 RMK A01 T02420079  RH  035%=      5-min Rain = 0
KSC1 180000Z 12010KT 24/08 A2989 RMK A01 T02410079  RH  035%=      5-min Rain = 0
KSC1 180001Z 12010KT 24/08 A2989 RMK A01 T02410079  RH  035%=      5-min Rain = 0
KSC1 180002Z 11008KT 24/08 A2989 RMK A01 T02400079  RH  036%=      5-min Rain = 0
KSC1 180003Z 12009KT 24/08 A2989 RMK A01 T02390078  RH  036%=      5-min Rain = 0
KSC1 180004Z 12008KT 24/08 A2989 RMK A01 T02390078  RH  036%=      5-min Rain = 0
KSC1 180005Z 12009KT 24/08 A2989 RMK A01 T02380078  RH  036%=      5-min Rain = 0
KSC1 180006Z 12009KT 24/08 A2989 RMK A01 T02380078  RH  036%=      5-min Rain = 0
KSC1 180007Z 12009KT 24/08 A2989 RMK A01 T02380079  RH  036%=      5-min Rain = 0
KSC1 180008Z 11008KT 24/08 A2989 RMK A01 T02380079  RH  036%=      5-min Rain = 0
KSC1 180009Z 12008KT 24/08 A2989 RMK A01 T02380079  RH  036%=      5-min Rain = 0
KSC1 180010Z 11009KT 24/08 A2989 RMK A01 T02370078  RH  036%=      5-min Rain = 0
KSC1 180011Z 11008KT 24/08 A2989 RMK A01 T02360078  RH  036%=      5-min Rain = 0
KSC1 180012Z 11009KT 24/08 A2989 RMK A01 T02350078  RH  037%=      5-min Rain = 0
KSC1 180013Z 11007KT 24/08 A2989 RMK A01 T02350079  RH  037%=      5-min Rain = 0
KSC1 180014Z 11008KT 23/08 A2989 RMK A01 T02340078  RH  037%=      5-min Rain = 0
KSC1 180015Z 11009KT 23/08 A2989 RMK A01 T02340078  RH  037%=      5-min Rain = 0
KSC1 180016Z 11009KT 23/08 A2989 RMK A01 T02340078  RH  037%=      5-min Rain = 0
KSC1 180017Z 11008KT 23/08 A2989 RMK A01 T02340078  RH  037%=      5-min Rain = 0
KSC1 180018Z 10008KT 23/08 A2989 RMK A01 T02330077  RH  037%=      5-min Rain = 0
KSC1 180019Z 11007KT 23/08 A2989 RMK A01 T02330078  RH  037%=      5-min Rain = 0
KSC1 180020Z 11007KT 23/08 A2989 RMK A01 T02320077  RH  037%=      5-min Rain = 0
KSC1 180021Z 11008KT 23/08 A2989 RMK A01 T02310077  RH  037%=      5-min Rain = 0
KSC1 180022Z 11008KT 23/08 A2989 RMK A01 T02310077  RH  037%=      5-min Rain = 0
KSC1 180023Z 11008KT 23/08 A2989 RMK A01 T02300076  RH  037%=      5-min Rain = 0
KSC1 180024Z 11008KT 23/08 A2989 RMK A01 T02300076  RH  037%=      5-min Rain = 0
KSC1 180025Z 10008KT 23/08 A2989 RMK A01 T02290076  RH  037%=      5-min Rain = 0
KSC1 180026Z 11007KT 23/08 A2989 RMK A01 T02280075  RH  037%=      5-min Rain = 0
KSC1 180027Z 11008KT 23/08 A2989 RMK A01 T02270075  RH  037%=      5-min Rain = 0
KSC1 180028Z 11007KT 23/08 A2989 RMK A01 T02270075  RH  038%=      5-min Rain = 0
KSC1 180029Z 10006KT 23/07 A2989 RMK A01 T02250074  RH  038%=      5-min Rain = 0
KSC1 180030Z 10007KT 23/07 A2989 RMK A01 T02250074  RH  038%=      5-min Rain = 0
KSC1 180031Z 11009KT 22/07 A2989 RMK A01 T02240074  RH  038%=      5-min Rain = 0
KSC1 180032Z 11008KT 22/07 A2989 RMK A01 T02240074  RH  038%=      5-min Rain = 0
KSC1 180033Z 10008KT 22/07 A2989 RMK A01 T02240074  RH  038%=      5-min Rain = 0
KSC1 180034Z 11008KT 22/07 A2989 RMK A01 T02240073  RH  038%=      5-min Rain = 0
KSC1 180035Z 11007KT 22/07 A2989 RMK A01 T02240073  RH  038%=      5-min Rain = 0
KSC1 180036Z 11008KT 22/07 A2989 RMK A01 T02230072  RH  038%=      5-min Rain = 0
KSC1 180037Z 10009KT 22/07 A2989 RMK A01 T02230072  RH  038%=      5-min Rain = 0
KSC1 180038Z 11007KT 22/07 A2989 RMK A01 T02220072  RH  038%=      5-min Rain = 0
KSC1 180039Z 10008KT 22/07 A2989 RMK A01 T02220071  RH  038%=      5-min Rain = 0
KSC1 180040Z 11009KT 22/07 A2989 RMK A01 T02220071  RH  038%=      5-min Rain = 0
KSC1 180041Z 10009KT 22/07 A2989 RMK A01 T02220071  RH  038%=      5-min Rain = 0
KSC1 180042Z 11010KT 22/07 A2989 RMK A01 T02220069  RH  037%=      5-min Rain = 0
KSC1 180043Z 11009KT 22/07 A2989 RMK A01 T02220068  RH  037%=      5-min Rain = 0
KSC1 180044Z 11009KT 22/07 A2989 RMK A01 T02220068  RH  037%=      5-min Rain = 0
KSC1 180045Z 11009KT 22/07 A2989 RMK A01 T02220067  RH  037%=      5-min Rain = 0
KSC1 180046Z 11011KT 22/07 A2989 RMK A01 T02220067  RH  037%=      5-min Rain = 0
KSC1 180047Z 11009KT 22/07 A2989 RMK A01 T02220066  RH  036%=      5-min Rain = 0
KSC1 180048Z 11008KT 22/07 A2989 RMK A01 T02220066  RH  036%=      5-min Rain = 0
KSC1 180049Z 11009KT 22/06 A2989 RMK A01 T02200064  RH  036%=      5-min Rain = 0
KSC1 180050Z 11010KT 22/06 A2989 RMK A01 T02200064  RH  036%=      5-min Rain = 0
KSC1 180051Z 10009KT 22/06 A2989 RMK A01 T02200063  RH  036%=      5-min Rain = 0
KSC1 180052Z 11009KT 22/06 A2989 RMK A01 T02200063  RH  036%=      5-min Rain = 0
KSC1 180053Z 11009KT 22/06 A2989 RMK A01 T02190062  RH  036%=      5-min Rain = 0
KSC1 180054Z 11009KT 22/06 A2989 RMK A01 T02190061  RH  036%=      5-min Rain = 0
KSC1 180055Z 11009KT 22/06 A2989 RMK A01 T02180061  RH  036%=      5-min Rain = 0
KSC1 180056Z 11009KT 22/06 A2989 RMK A01 T02180060  RH  036%=      5-min Rain = 0
KSC1 180057Z 11008KT 22/06 A2989 RMK A01 T02180059  RH  036%=      5-min Rain = 0
KSC1 180058Z 11008KT 22/06 A2989 RMK A01 T02180058  RH  035%=      5-min Rain = 0
KSC1 180059Z 11008KT 22/06 A2989 RMK A01 T02170058  RH  035%=      5-min Rain = 0
KSC1 180100Z 11008KT 22/06 A2989 RMK A01 T02170058  RH  036%=      5-min Rain = 0
KSC1 180101Z 11009KT 22/06 A2989 RMK A01 T02160057  RH  035%=      5-min Rain = 0
KSC1 180102Z 11008KT 22/06 A2989 RMK A01 T02160056  RH  035%=      5-min Rain = 0
KSC1 180103Z 10009KT 22/06 A2989 RMK A01 T02160056  RH  035%=      5-min Rain = 0
KSC1 180104Z 11007KT 22/05 A2989 RMK A01 T02150054  RH  035%=      5-min Rain = 0
KSC1 180105Z 11008KT 22/05 A2989 RMK A01 T02150054  RH  035%=      5-min Rain = 0
KSC1 180106Z 11008KT 21/05 A2989 RMK A01 T02140053  RH  035%=      5-min Rain = 0
KSC1 180107Z 11009KT 21/05 A2989 RMK A01 T02140052  RH  035%=      5-min Rain = 0
KSC1 180108Z 11009KT 21/05 A2989 RMK A01 T02140051  RH  034%=      5-min Rain = 0
KSC1 180109Z 11009KT 21/05 A2989 RMK A01 T02140050  RH  034%=      5-min Rain = 0
KSC1 180110Z 11009KT 21/05 A2989 RMK A01 T02140050  RH  034%=      5-min Rain = 0
KSC1 180111Z 11008KT 22/05 A2989 RMK A01 T02150049  RH  034%=      5-min Rain = 0
KSC1 180112Z 11008KT 21/05 A2989 RMK A01 T02140049  RH  034%=      5-min Rain = 0
KSC1 180113Z 11009KT 21/05 A2989 RMK A01 T02140048  RH  034%=      5-min Rain = 0
KSC1 180114Z 11009KT 21/05 A299 RMK A01 T02130047  RH  034%=      5-min Rain = 0
KSC1 180115Z 11008KT 21/05 A299 RMK A01 T02140048  RH  034%=      5-min Rain = 0
KSC1 180116Z 11008KT 21/05 A299 RMK A01 T02130047  RH  034%=      5-min Rain = 0
KSC1 180117Z 11008KT 21/05 A299 RMK A01 T02120047  RH  034%=      5-min Rain = 0
KSC1 180118Z 11008KT 21/05 A299 RMK A01 T02120046  RH  034%=      5-min Rain = 0
KSC1 180119Z 11008KT 21/05 A299 RMK A01 T02110045  RH  034%=      5-min Rain = 0
KSC1 180120Z 11008KT 21/05 A299 RMK A01 T02110045  RH  034%=      5-min Rain = 0
KSC1 180121Z 11008KT 21/05 A299 RMK A01 T02100045  RH  034%=      5-min Rain = 0
KSC1 180122Z 11008KT 21/04 A299 RMK A01 T02100044  RH  034%=      5-min Rain = 0
KSC1 180123Z 11007KT 21/04 A299 RMK A01 T02090043  RH  034%=      5-min Rain = 0
KSC1 180124Z 11008KT 21/04 A299 RMK A01 T02080043  RH  034%=      5-min Rain = 0
KSC1 180125Z 11008KT 21/04 A299 RMK A01 T02080043  RH  034%=      5-min Rain = 0
KSC1 180126Z 10008KT 21/04 A299 RMK A01 T02080042  RH  034%=      5-min Rain = 0
KSC1 180127Z 11011KT 21/04 A299 RMK A01 T02080042  RH  034%=      5-min Rain = 0
KSC1 180128Z 11009KT 21/04 A299 RMK A01 T02080041  RH  033%=      5-min Rain = 0
KSC1 180129Z 11010KT 21/04 A299 RMK A01 T02080040  RH  033%=      5-min Rain = 0
KSC1 180130Z 10010KT 21/04 A299 RMK A01 T02080040  RH  033%=      5-min Rain = 0
KSC1 180131Z 11010KT 21/04 A299 RMK A01 T02080039  RH  033%=      5-min Rain = 0
KSC1 180132Z 11007KT 21/04 A299 RMK A01 T02080039  RH  033%=      5-min Rain = 0
KSC1 180133Z 11009KT 21/04 A299 RMK A01 T02070038  RH  033%=      5-min Rain = 0
KSC1 180134Z 11012KT 21/04 A299 RMK A01 T02070038  RH  033%=      5-min Rain = 0
KSC1 180135Z 11009KT 21/04 A299 RMK A01 T02070037  RH  033%=      5-min Rain = 0
KSC1 180136Z 11007KT 21/04 A299 RMK A01 T02070037  RH  033%=      5-min Rain = 0
KSC1 180137Z 11009KT 21/04 A299 RMK A01 T02060036  RH  033%=      5-min Rain = 0
KSC1 180138Z 11009KT 21/04 A299 RMK A01 T02060035  RH  032%=      5-min Rain = 0
KSC1 180139Z 11009G14KT 21/04 A299 RMK A01 T02060035  RH  032%=      5-min Rain = 0
KSC1 180140Z 11013KT 21/03 A299 RMK A01 T02060033  RH  032%=      5-min Rain = 0
KSC1 180141Z 11009KT 21/03 A299 RMK A01 T02070033  RH  032%=      5-min Rain = 0
KSC1 180142Z 11009KT 21/03 A299 RMK A01 T02070033  RH  032%=      5-min Rain = 0
KSC1 180143Z 11009KT 21/03 A299 RMK A01 T02060032  RH  032%=      5-min Rain = 0
KSC1 180144Z 11012KT 21/03 A299 RMK A01 T02060031  RH  032%=      5-min Rain = 0
KSC1 180145Z 10012KT 21/03 A299 RMK A01 T02060030  RH  031%=      5-min Rain = 0
KSC1 180146Z 10012KT 21/03 A299 RMK A01 T02060030  RH  031%=      5-min Rain = 0
KSC1 180147Z 11009KT 21/03 A299 RMK A01 T02060029  RH  031%=      5-min Rain = 0
KSC1 180148Z 11010KT 21/03 A299 RMK A01 T02050029  RH  031%=      5-min Rain = 0
KSC1 180149Z 11009KT 21/03 A299 RMK A01 T02050029  RH  031%=      5-min Rain = 0
KSC1 180150Z 10007KT 20/03 A299 RMK A01 T02040028  RH  031%=      5-min Rain = 0
KSC1 180151Z 11010KT 20/03 A299 RMK A01 T02020028  RH  031%=      5-min Rain = 0
KSC1 180152Z 11012KT 20/03 A299 RMK A01 T02020027  RH  031%=      5-min Rain = 0
KSC1 180153Z 10009KT 20/03 A299 RMK A01 T02020027  RH  031%=      5-min Rain = 0
KSC1 180154Z 10010KT 20/03 A299 RMK A01 T02010027  RH  031%=      5-min Rain = 0
KSC1 180155Z 11010KT 20/03 A299 RMK A01 T02010026  RH  032%=      5-min Rain = 0
KSC1 180156Z 11009KT 20/03 A299 RMK A01 T02000026  RH  032%=      5-min Rain = 0
KSC1 180157Z 11011KT 20/03 A299 RMK A01 T01990025  RH  032%=      5-min Rain = 0
KSC1 180158Z 11010KT 20/03 A299 RMK A01 T01990026  RH  032%=      5-min Rain = 0
KSC1 180159Z 11009KT 20/03 A299 RMK A01 T01990025  RH  032%=      5-min Rain = 0
KSC1 180200Z 11010KT 20/03 A299 RMK A01 T01990025  RH  032%=      5-min Rain = 0
KSC1 180201Z 11008KT 20/03 A299 RMK A01 T01980025  RH  032%=      5-min Rain = 0
KSC1 180202Z 11010KT 20/02 A299 RMK A01 T01970024  RH  032%=      5-min Rain = 0
KSC1 180203Z 11009KT 20/02 A299 RMK A01 T01970024  RH  032%=      5-min Rain = 0
KSC1 180204Z 11009KT 20/02 A299 RMK A01 T01960023  RH  032%=      5-min Rain = 0
KSC1 180205Z 11009KT 20/02 A299 RMK A01 T01960023  RH  032%=      5-min Rain = 0
KSC1 180206Z 11009KT 20/02 A299 RMK A01 T01960023  RH  032%=      5-min Rain = 0
KSC1 180207Z 11009G14KT 20/02 A299 RMK A01 T01960023  RH  032%=      5-min Rain = 0
KSC1 180208Z 11010KT 20/02 A299 RMK A01 T01950022  RH  032%=      5-min Rain = 0
KSC1 180209Z 11009KT 20/02 A299 RMK A01 T01950022  RH  032%=      5-min Rain = 0
KSC1 180210Z 11011KT 19/02 A299 RMK A01 T01940022  RH  032%=      5-min Rain = 0
KSC1 180211Z 10008KT 19/02 A299 RMK A01 T01940021  RH  032%=      5-min Rain = 0
KSC1 180212Z 11009KT 19/02 A299 RMK A01 T01940021  RH  032%=      5-min Rain = 0
KSC1 180213Z 11009G14KT 19/02 A299 RMK A01 T01930020  RH  032%=      5-min Rain = 0
KSC1 180214Z 11009KT 19/02 A299 RMK A01 T01930020  RH  032%=      5-min Rain = 0
KSC1 180215Z 11009KT 19/02 A299 RMK A01 T01930020  RH  031%=      5-min Rain = 0
KSC1 180216Z 12009KT 19/02 A299 RMK A01 T01930019  RH  031%=      5-min Rain = 0
KSC1 180217Z 11009KT 19/02 A299 RMK A01 T01920019  RH  031%=      5-min Rain = 0
KSC1 180218Z 11009KT 19/02 A299 RMK A01 T01920019  RH  031%=      5-min Rain = 0
KSC1 180219Z 11010KT 19/02 A299 RMK A01 T01920018  RH  031%=      5-min Rain = 0
KSC1 180220Z 11010KT 19/02 A299 RMK A01 T01910018  RH  031%=      5-min Rain = 0
KSC1 180221Z 11007KT 19/02 A299 RMK A01 T01910018  RH  031%=      5-min Rain = 0
KSC1 180222Z 11010KT 19/02 A299 RMK A01 T01910018  RH  031%=      5-min Rain = 0
KSC1 180223Z 11009KT 19/02 A299 RMK A01 T01900017  RH  031%=      5-min Rain = 0
KSC1 180224Z 11009KT 19/02 A299 RMK A01 T01900017  RH  031%=      5-min Rain = 0
KSC1 180225Z 11010KT 19/02 A299 RMK A01 T01900017  RH  031%=      5-min Rain = 0
KSC1 180226Z 11010G15KT 19/02 A299 RMK A01 T01900016  RH  031%=      5-min Rain = 0
KSC1 180227Z 12009KT 19/02 A299 RMK A01 T01900015  RH  031%=      5-min Rain = 0
KSC1 180228Z 11010KT 19/02 A2991 RMK A01 T01900015  RH  031%=      5-min Rain = 0
KSC1 180229Z 11011KT 19/01 A2991 RMK A01 T01900014  RH  031%=      5-min Rain = 0
KSC1 180230Z 11011KT 19/01 A2991 RMK A01 T01900014  RH  031%=      5-min Rain = 0
KSC1 180231Z 12010KT 19/01 A2991 RMK A01 T01900013  RH  031%=      5-min Rain = 0
KSC1 180232Z 11008KT 19/01 A2991 RMK A01 T01900013  RH  031%=      5-min Rain = 0
KSC1 180233Z 11009KT 19/01 A2991 RMK A01 T01890013  RH  031%=      5-min Rain = 0
KSC1 180234Z 11010KT 19/01 A2991 RMK A01 T01880012  RH  031%=      5-min Rain = 0
KSC1 180235Z 11008KT 19/01 A2991 RMK A01 T01880013  RH  031%=      5-min Rain = 0
KSC1 180236Z 11008KT 19/01 A2991 RMK A01 T01870012  RH  031%=      5-min Rain = 0
KSC1 180237Z 11010KT 19/01 A2991 RMK A01 T01870012  RH  031%=      5-min Rain = 0
KSC1 180238Z 11012KT 19/01 A2991 RMK A01 T01870011  RH  031%=      5-min Rain = 0
KSC1 180239Z 12010KT 19/01 A2991 RMK A01 T01870010  RH  031%=      5-min Rain = 0
KSC1 180240Z 11008KT 19/01 A2991 RMK A01 T01870010  RH  031%=      5-min Rain = 0
KSC1 180241Z 11013KT 19/01 A2991 RMK A01 T01870010  RH  030%=      5-min Rain = 0
KSC1 180242Z 11011KT 19/01 A2991 RMK A01 T01870009  RH  030%=      5-min Rain = 0
KSC1 180243Z 11012KT 19/01 A2991 RMK A01 T01870009  RH  030%=      5-min Rain = 0
KSC1 180244Z 11009KT 19/01 A2991 RMK A01 T01870009  RH  030%=      5-min Rain = 0
KSC1 180245Z 11008KT 19/01 A2991 RMK A01 T01870009  RH  030%=      5-min Rain = 0
KSC1 180246Z 11009KT 19/01 A2991 RMK A01 T01860009  RH  030%=      5-min Rain = 0
KSC1 180247Z 11010G15KT 19/01 A2991 RMK A01 T01860009  RH  030%=      5-min Rain = 0
KSC1 180248Z 11012KT 19/01 A2991 RMK A01 T01860009  RH  030%=      5-min Rain = 0
KSC1 180249Z 11011KT 19/01 A2991 RMK A01 T01860009  RH  030%=      5-min Rain = 0
KSC1 180250Z 11009KT 19/01 A2991 RMK A01 T01860009  RH  030%=      5-min Rain = 0
KSC1 180251Z 12010KT 19/01 A2991 RMK A01 T01850009  RH  030%=      5-min Rain = 0
KSC1 180252Z 12009KT 19/01 A2991 RMK A01 T01850009  RH  031%=      5-min Rain = 0
KSC1 180253Z 11009KT 19/01 A2991 RMK A01 T01850009  RH  031%=      5-min Rain = 0
KSC1 180254Z 11008KT 19/01 A2991 RMK A01 T01850009  RH  031%=      5-min Rain = 0
KSC1 180255Z 11008KT 18/01 A2991 RMK A01 T01840009  RH  031%=      5-min Rain = 0
KSC1 180256Z 11011KT 18/01 A2991 RMK A01 T01840009  RH  031%=      5-min Rain = 0
KSC1 180257Z 11008KT 18/01 A2991 RMK A01 T01830009  RH  031%=      5-min Rain = 0
KSC1 180258Z 11008KT 18/01 A2991 RMK A01 T01830009  RH  031%=      5-min Rain = 0
KSC1 180259Z 11008KT 18/01 A2991 RMK A01 T01820009  RH  031%=      5-min Rain = 0
KSC1 180300Z 11008KT 18/01 A2991 RMK A01 T01820009  RH  031%=      5-min Rain = 0
KSC1 180301Z 11009KT 18/01 A2991 RMK A01 T01810009  RH  031%=      5-min Rain = 0
KSC1 180302Z 11008KT 18/01 A2991 RMK A01 T01810009  RH  031%=      5-min Rain = 0
KSC1 180303Z 11008KT 18/01 A2991 RMK A01 T01810009  RH  031%=      5-min Rain = 0
KSC1 180304Z 11007KT 18/01 A2991 RMK A01 T01800009  RH  032%=      5-min Rain = 0
KSC1 180305Z 11007KT 18/01 A2991 RMK A01 T01800009  RH  032%=      5-min Rain = 0
KSC1 180306Z 11008KT 18/01 A2991 RMK A01 T01790009  RH  032%=      5-min Rain = 0
KSC1 180307Z 11007KT 18/01 A2991 RMK A01 T01780009  RH  032%=      5-min Rain = 0
KSC1 180308Z 11007KT 18/01 A2991 RMK A01 T01780009  RH  032%=      5-min Rain = 0
KSC1 180309Z 11008KT 18/01 A2991 RMK A01 T01780009  RH  032%=      5-min Rain = 0
KSC1 180310Z 11007KT 18/01 A2991 RMK A01 T01770009  RH  032%=      5-min Rain = 0
KSC1 180311Z 11008KT 18/01 A2991 RMK A01 T01770010  RH  032%=      5-min Rain = 0
KSC1 180312Z 11007KT 18/01 A2991 RMK A01 T01760009  RH  032%=      5-min Rain = 0
KSC1 180313Z 10008KT 18/01 A2991 RMK A01 T01760010  RH  033%=      5-min Rain = 0
KSC1 180314Z 11008KT 18/01 A2991 RMK A01 T01750010  RH  033%=      5-min Rain = 0
KSC1 180315Z 11009KT 18/01 A2991 RMK A01 T01750010  RH  033%=      5-min Rain = 0
KSC1 180316Z 11007KT 18/01 A2991 RMK A01 T01750010  RH  033%=      5-min Rain = 0
KSC1 180317Z 11006KT 18/01 A2991 RMK A01 T01750010  RH  033%=      5-min Rain = 0
KSC1 180318Z 11008KT 17/01 A2991 RMK A01 T01740010  RH  033%=      5-min Rain = 0
KSC1 180319Z 11009KT 17/01 A2991 RMK A01 T01740010  RH  033%=      5-min Rain = 0
KSC1 180320Z 11009KT 17/01 A2991 RMK A01 T01740010  RH  033%=      5-min Rain = 0
KSC1 180321Z 11008KT 17/01 A2991 RMK A01 T01740010  RH  033%=      5-min Rain = 0
KSC1 180322Z 10008KT 17/01 A2991 RMK A01 T01740010  RH  033%=      5-min Rain = 0
KSC1 180323Z 11007KT 17/01 A2991 RMK A01 T01740010  RH  033%=      5-min Rain = 0
KSC1 180324Z 11007KT 17/01 A2991 RMK A01 T01740010  RH  033%=      5-min Rain = 0
KSC1 180325Z 11008KT 17/01 A2991 RMK A01 T01730010  RH  033%=      5-min Rain = 0
KSC1 180326Z 11008KT 17/01 A2991 RMK A01 T01730010  RH  033%=      5-min Rain = 0
KSC1 180327Z 11008KT 17/01 A2991 RMK A01 T01730010  RH  033%=      5-min Rain = 0
KSC1 180328Z 11009KT 17/01 A2991 RMK A01 T01730010  RH  033%=      5-min Rain = 0
KSC1 180329Z 10009KT 17/01 A2991 RMK A01 T01720010  RH  033%=      5-min Rain = 0
KSC1 180330Z 10009KT 17/01 A2991 RMK A01 T01730010  RH  033%=      5-min Rain = 0
KSC1 180331Z 10009KT 17/01 A2991 RMK A01 T01720010  RH  033%=      5-min Rain = 0
KSC1 180332Z 10008KT 17/01 A2991 RMK A01 T01730010  RH  033%=      5-min Rain = 0
KSC1 180333Z 11009KT 17/01 A2991 RMK A01 T01720010  RH  033%=      5-min Rain = 0
KSC1 180334Z 11007KT 17/01 A2991 RMK A01 T01720010  RH  033%=      5-min Rain = 0
KSC1 180335Z 11007KT 17/01 A2991 RMK A01 T01720010  RH  033%=      5-min Rain = 0
KSC1 180336Z 11005KT 17/01 A2991 RMK A01 T01710009  RH  033%=      5-min Rain = 0
KSC1 180337Z 11006KT 17/01 A2991 RMK A01 T01710009  RH  034%=      5-min Rain = 0
KSC1 180338Z 11007KT 17/01 A2991 RMK A01 T01700009  RH  034%=      5-min Rain = 0
KSC1 180339Z 12006KT 17/01 A2991 RMK A01 T01700009  RH  034%=      5-min Rain = 0
KSC1 180340Z 12006KT 17/01 A2991 RMK A01 T01700010  RH  034%=      5-min Rain = 0
KSC1 180341Z 11006KT 17/01 A2991 RMK A01 T01690009  RH  034%=      5-min Rain = 0
KSC1 180342Z 11005KT 17/01 A2991 RMK A01 T01690009  RH  034%=      5-min Rain = 0
KSC1 180343Z 12006KT 17/01 A2991 RMK A01 T01690009  RH  034%=      5-min Rain = 0
KSC1 180344Z 11007KT 17/01 A2992 RMK A01 T01690009  RH  034%=      5-min Rain = 0
KSC1 180345Z 12006KT 17/01 A2992 RMK A01 T01680009  RH  034%=      5-min Rain = 0
KSC1 180346Z 11005KT 17/01 A2992 RMK A01 T01680010  RH  034%=      5-min Rain = 0
KSC1 180347Z 11006KT 17/01 A2992 RMK A01 T01680010  RH  034%=      5-min Rain = 0
KSC1 180348Z 11005KT 17/01 A2992 RMK A01 T01680009  RH  034%=      5-min Rain = 0
KSC1 180349Z 11005KT 17/01 A2992 RMK A01 T01680010  RH  034%=      5-min Rain = 0
KSC1 180350Z 12006KT 17/01 A2992 RMK A01 T01670009  RH  034%=      5-min Rain = 0
KSC1 180351Z 11006KT 17/01 A2992 RMK A01 T01670010  RH  034%=      5-min Rain = 0
KSC1 180352Z 11007KT 17/01 A2992 RMK A01 T01670010  RH  034%=      5-min Rain = 0
KSC1 180353Z 11006KT 17/01 A2992 RMK A01 T01670010  RH  034%=      5-min Rain = 0
KSC1 180354Z 11006KT 17/01 A2992 RMK A01 T01670009  RH  035%=      5-min Rain = 0
KSC1 180355Z 11005KT 17/01 A2992 RMK A01 T01660009  RH  035%=      5-min Rain = 0
KSC1 180356Z 11005KT 17/01 A2992 RMK A01 T01660010  RH  035%=      5-min Rain = 0
KSC1 180357Z 11006KT 17/01 A2992 RMK A01 T01660009  RH  035%=      5-min Rain = 0
KSC1 180358Z 11005KT 17/01 A2992 RMK A01 T01660010  RH  035%=      5-min Rain = 0
KSC1 180359Z 11005KT 17/01 A2992 RMK A01 T01650009  RH  035%=      5-min Rain = 0
KSC1 180400Z 11004KT 16/01 A2992 RMK A01 T01640009  RH  035%=      5-min Rain = 0
KSC1 180401Z 11006KT 16/01 A2992 RMK A01 T01640009  RH  035%=      5-min Rain = 0
KSC1 180402Z 12006KT 16/01 A2992 RMK A01 T01630010  RH  035%=      5-min Rain = 0
KSC1 180403Z 12005KT 16/01 A2992 RMK A01 T01640010  RH  035%=      5-min Rain = 0
KSC1 180404Z 12004KT 16/01 A2992 RMK A01 T01640010  RH  035%=      5-min Rain = 0
KSC1 180405Z 13004KT 16/01 A2992 RMK A01 T01640010  RH  035%=      5-min Rain = 0
KSC1 180406Z 12004KT 16/01 A2992 RMK A01 T01630010  RH  035%=      5-min Rain = 0
KSC1 180407Z 13006KT 16/01 A2992 RMK A01 T01630010  RH  035%=      5-min Rain = 0
KSC1 180408Z 12006KT 16/01 A2992 RMK A01 T01630010  RH  035%=      5-min Rain = 0
KSC1 180409Z 12006KT 16/01 A2992 RMK A01 T01630010  RH  035%=      5-min Rain = 0
KSC1 180410Z 12006KT 16/01 A2992 RMK A01 T01620010  RH  036%=      5-min Rain = 0
KSC1 180411Z 12005KT 16/01 A2992 RMK A01 T01620010  RH  036%=      5-min Rain = 0
KSC1 180412Z 11005KT 16/01 A2992 RMK A01 T01620010  RH  036%=      5-min Rain = 0
KSC1 180413Z 12005KT 16/01 A2992 RMK A01 T01610010  RH  036%=      5-min Rain = 0
KSC1 180414Z 11006KT 16/01 A2992 RMK A01 T01610010  RH  036%=      5-min Rain = 0
KSC1 180415Z 11006KT 16/01 A2992 RMK A01 T01600010  RH  036%=      5-min Rain = 0
KSC1 180416Z 11006KT 16/01 A2992 RMK A01 T01600010  RH  036%=      5-min Rain = 0
KSC1 180417Z 11005KT 16/01 A2992 RMK A01 T01600010  RH  036%=      5-min Rain = 0
KSC1 180418Z 11006KT 16/01 A2993 RMK A01 T01600010  RH  036%=      5-min Rain = 0
KSC1 180419Z 11005KT 16/01 A2993 RMK A01 T01600010  RH  036%=      5-min Rain = 0
KSC1 180420Z 12005KT 16/01 A2993 RMK A01 T01590010  RH  036%=      5-min Rain = 0
KSC1 180421Z 11005KT 16/01 A2993 RMK A01 T01590010  RH  036%=      5-min Rain = 0
KSC1 180422Z 11004KT 16/01 A2993 RMK A01 T01580010  RH  037%=      5-min Rain = 0
KSC1 180423Z 12005KT 16/01 A2993 RMK A01 T01570010  RH  037%=      5-min Rain = 0
KSC1 180424Z 12005KT 16/01 A2993 RMK A01 T01570009  RH  037%=      5-min Rain = 0
KSC1 180425Z 12005KT 16/01 A2993 RMK A01 T01560010  RH  037%=      5-min Rain = 0
KSC1 180426Z 12005KT 16/01 A2993 RMK A01 T01560010  RH  037%=      5-min Rain = 0
KSC1 180427Z 12004KT 16/01 A2993 RMK A01 T01550010  RH  037%=      5-min Rain = 0
KSC1 180428Z 12005KT 15/01 A2993 RMK A01 T01540010  RH  037%=      5-min Rain = 0
KSC1 180429Z 12004KT 15/01 A2993 RMK A01 T01540010  RH  038%=      5-min Rain = 0
KSC1 180430Z 12005KT 15/01 A2993 RMK A01 T01530009  RH  038%=      5-min Rain = 0
KSC1 180431Z 12005KT 15/01 A2993 RMK A01 T01530009  RH  038%=      5-min Rain = 0
KSC1 180432Z 12005KT 15/01 A2993 RMK A01 T01520010  RH  038%=      5-min Rain = 0
KSC1 180433Z 11005KT 15/01 A2992 RMK A01 T01510010  RH  038%=      5-min Rain = 0
KSC1 180434Z 12004KT 15/01 A2992 RMK A01 T01510010  RH  038%=      5-min Rain = 0
KSC1 180435Z 12004KT 15/01 A2992 RMK A01 T01500010  RH  038%=      5-min Rain = 0
KSC1 180436Z 12005KT 15/01 A2992 RMK A01 T01500010  RH  039%=      5-min Rain = 0
KSC1 180437Z 12005KT 15/01 A2992 RMK A01 T01500010  RH  039%=      5-min Rain = 0
KSC1 180438Z 12005KT 15/01 A2992 RMK A01 T01490010  RH  039%=      5-min Rain = 0
KSC1 180439Z 12006KT 15/01 A2992 RMK A01 T01490011  RH  039%=      5-min Rain = 0
KSC1 180440Z 13005KT 15/01 A2992 RMK A01 T01490010  RH  039%=      5-min Rain = 0
KSC1 180441Z 12005KT 15/01 A2992 RMK A01 T01490011  RH  039%=      5-min Rain = 0
KSC1 180442Z 12005KT 15/01 A2992 RMK A01 T01490011  RH  039%=      5-min Rain = 0
KSC1 180443Z 12005KT 15/01 A2992 RMK A01 T01490011  RH  039%=      5-min Rain = 0
KSC1 180444Z 12006KT 15/01 A2992 RMK A01 T01480011  RH  039%=      5-min Rain = 0
KSC1 180445Z 12004KT 15/01 A2992 RMK A01 T01480011  RH  039%=      5-min Rain = 0
KSC1 180446Z 11005KT 15/01 A2992 RMK A01 T01480011  RH  039%=      5-min Rain = 0
KSC1 180447Z 12005KT 15/01 A2992 RMK A01 T01480012  RH  039%=      5-min Rain = 0
KSC1 180448Z 12005KT 15/01 A2992 RMK A01 T01480012  RH  040%=      5-min Rain = 0
KSC1 180449Z 12006KT 15/01 A2992 RMK A01 T01470012  RH  040%=      5-min Rain = 0
KSC1 180450Z 12005KT 15/01 A2992 RMK A01 T01470012  RH  040%=      5-min Rain = 0
KSC1 180451Z 12005KT 15/01 A2992 RMK A01 T01470012  RH  040%=      5-min Rain = 0
KSC1 180452Z 12005KT 15/01 A2992 RMK A01 T01480013  RH  040%=      5-min Rain = 0
KSC1 180453Z 12005KT 15/01 A2992 RMK A01 T01470012  RH  040%=      5-min Rain = 0
KSC1 180454Z 12004KT 15/01 A2992 RMK A01 T01470013  RH  040%=      5-min Rain = 0
KSC1 180455Z 12005KT 15/01 A2992 RMK A01 T01470013  RH  040%=      5-min Rain = 0
KSC1 180456Z 11004KT 15/01 A2992 RMK A01 T01460012  RH  040%=      5-min Rain = 0
KSC1 180457Z 12004KT 15/01 A2992 RMK A01 T01460013  RH  040%=      5-min Rain = 0
KSC1 180458Z 11005KT 15/01 A2992 RMK A01 T01460012  RH  040%=      5-min Rain = 0
KSC1 180459Z 11005KT 15/01 A2992 RMK A01 T01460013  RH  040%=      5-min Rain = 0

Page generated in 0.1178 seconds.